SWR161K RJAA-LSZH
Flight info
| Callsign | SWR161K |
|---|---|
| Flight time | 13h 27m |
| Altitude | 29000 |
| Route | GULBO Y808 PUTER/N0503F300 A590 POWAL/N0501F310 DCT NATES R338 MARCC DCT JUJXI/N0497F330 DCT 70N163W 75N157W DCT COALL DCT 84N060W/M086F350 79N020W 70N000E/N0501F350 DCT NOMGA DCT AMSEV/N0492F370 DCT AMRAK/N0494F360 DCT SWALM DCT OMOGI/N0495F370 T721 LAMGO/N0469F270 T721 RILAX |
| Aircraft | B77W/H-SDE1E2E3FGHIJ2J3J4J5M1RWXY/LB1D1 |
Departure
| Time | 2026-05-07 09:59 |
|---|---|
| Airport | Narita International Airport (RJAA) |
Arrival
| Time | 2026-05-07 23:26 |
|---|---|
| Airport | Zürich Airport (LSZH) |
| Time | Latitude | Longitude | Altitude | Speed | Heading |
|---|---|---|---|---|---|
| 2026-05-07 09:02 | 35.75996 | 140.38502 | 148 ft | 0 kts | 59° |
| 2026-05-07 09:47 | 35.75995 | 140.38500 | 148 ft | 2 kts | 59° |
| 2026-05-07 09:48 | 35.75987 | 140.38484 | 148 ft | 2 kts | 59° |
| 2026-05-07 09:48 | 35.75979 | 140.38468 | 148 ft | 2 kts | 59° |
| 2026-05-07 09:48 | 35.75972 | 140.38451 | 148 ft | 2 kts | 59° |
| 2026-05-07 09:48 | 35.75964 | 140.38435 | 148 ft | 2 kts | 59° |
| 2026-05-07 09:49 | 35.75957 | 140.38422 | 148 ft | 2 kts | 36° |
| 2026-05-07 09:49 | 35.75946 | 140.38415 | 148 ft | 2 kts | 5° |
| 2026-05-07 09:49 | 35.75934 | 140.38416 | 148 ft | 2 kts | 335° |
| 2026-05-07 09:49 | 35.75921 | 140.38426 | 148 ft | 2 kts | 329° |
| 2026-05-07 09:50 | 35.75907 | 140.38436 | 148 ft | 2 kts | 329° |
| 2026-05-07 09:50 | 35.75894 | 140.38445 | 148 ft | 2 kts | 329° |
| 2026-05-07 09:50 | 35.75891 | 140.38447 | 148 ft | 0 kts | 329° |
| 2026-05-07 09:53 | 35.75902 | 140.38439 | 148 ft | 7 kts | 329° |
| 2026-05-07 09:53 | 35.75959 | 140.38399 | 148 ft | 10 kts | 330° |
| 2026-05-07 09:53 | 35.76017 | 140.38357 | 148 ft | 10 kts | 327° |
| 2026-05-07 09:53 | 35.76047 | 140.38289 | 148 ft | 10 kts | 265° |
| 2026-05-07 09:54 | 35.76022 | 140.38215 | 148 ft | 9 kts | 242° |
| 2026-05-07 09:54 | 35.76009 | 140.38142 | 148 ft | 9 kts | 289° |
| 2026-05-07 09:54 | 35.76067 | 140.38077 | 148 ft | 15 kts | 328° |
| 2026-05-07 09:54 | 35.76191 | 140.37986 | 148 ft | 26 kts | 329° |
| 2026-05-07 09:55 | 35.76364 | 140.37861 | 148 ft | 29 kts | 330° |
| 2026-05-07 09:55 | 35.76532 | 140.37741 | 148 ft | 27 kts | 329° |
| 2026-05-07 09:55 | 35.76687 | 140.37632 | 148 ft | 24 kts | 328° |
| 2026-05-07 09:55 | 35.76780 | 140.37562 | 148 ft | 23 kts | 329° |
| 2026-05-07 09:56 | 35.76915 | 140.37464 | 148 ft | 22 kts | 329° |
| 2026-05-07 09:56 | 35.77044 | 140.37370 | 148 ft | 21 kts | 330° |
| 2026-05-07 09:56 | 35.77208 | 140.37255 | 148 ft | 20 kts | 329° |
| 2026-05-07 09:56 | 35.77324 | 140.37171 | 148 ft | 19 kts | 329° |
| 2026-05-07 09:57 | 35.77435 | 140.37091 | 148 ft | 18 kts | 329° |
| 2026-05-07 09:57 | 35.77491 | 140.37020 | 148 ft | 17 kts | 288° |
| 2026-05-07 09:57 | 35.77419 | 140.36864 | 148 ft | 13 kts | 182° |
| 2026-05-07 09:57 | 35.77341 | 140.36901 | 148 ft | 12 kts | 149° |
| 2026-05-07 09:58 | 35.77283 | 140.36943 | 148 ft | 25 kts | 149° |
| 2026-05-07 09:58 | 35.76921 | 140.37204 | 148 ft | 95 kts | 149° |
| 2026-05-07 09:58 | 35.75816 | 140.37998 | 149 ft | 179 kts | 149° |
| 2026-05-07 09:58 | 35.74656 | 140.38863 | 431 ft | 203 kts | 149° |
| 2026-05-07 09:59 | 35.73828 | 140.39487 | 819 ft | 209 kts | 149° |
| 2026-05-07 09:59 | 35.72582 | 140.40382 | 1613 ft | 212 kts | 150° |
| 2026-05-07 09:59 | 35.71261 | 140.41283 | 2286 ft | 218 kts | 151° |
| 2026-05-07 09:59 | 35.69999 | 140.42340 | 2997 ft | 224 kts | 148° |
| 2026-05-07 10:00 | 35.68619 | 140.43367 | 3349 ft | 240 kts | 152° |
| 2026-05-07 10:00 | 35.67148 | 140.44359 | 3851 ft | 244 kts | 154° |
| 2026-05-07 10:00 | 35.65607 | 140.45360 | 4182 ft | 257 kts | 154° |
| 2026-05-07 10:00 | 35.63490 | 140.46824 | 4740 ft | 269 kts | 153° |
| 2026-05-07 10:01 | 35.62388 | 140.47623 | 5070 ft | 274 kts | 152° |
| 2026-05-07 10:01 | 35.60735 | 140.48834 | 5586 ft | 279 kts | 152° |
| 2026-05-07 10:01 | 35.59079 | 140.50048 | 6103 ft | 284 kts | 151° |
| 2026-05-07 10:01 | 35.57374 | 140.51300 | 6647 ft | 287 kts | 151° |
| 2026-05-07 10:02 | 35.55645 | 140.52549 | 7187 ft | 290 kts | 152° |
| 2026-05-07 10:02 | 35.53897 | 140.53802 | 7720 ft | 292 kts | 152° |
| 2026-05-07 10:02 | 35.52130 | 140.55066 | 8239 ft | 295 kts | 152° |
| 2026-05-07 10:02 | 35.50350 | 140.56340 | 8784 ft | 297 kts | 152° |
| 2026-05-07 10:03 | 35.48560 | 140.57620 | 9303 ft | 299 kts | 152° |
| 2026-05-07 10:03 | 35.46760 | 140.58908 | 9845 ft | 299 kts | 154° |
| 2026-05-07 10:03 | 35.44985 | 140.60193 | 10314 ft | 303 kts | 152° |
| 2026-05-07 10:03 | 35.43308 | 140.61809 | 10737 ft | 311 kts | 141° |
| 2026-05-07 10:04 | 35.41841 | 140.63789 | 11231 ft | 316 kts | 134° |
| 2026-05-07 10:04 | 35.40483 | 140.65937 | 11574 ft | 326 kts | 131° |
| 2026-05-07 10:04 | 35.39150 | 140.68251 | 11819 ft | 337 kts | 129° |
| 2026-05-07 10:04 | 35.37815 | 140.70699 | 11969 ft | 354 kts | 128° |
| 2026-05-07 10:05 | 35.36431 | 140.73272 | 12101 ft | 369 kts | 128° |
| 2026-05-07 10:05 | 35.34976 | 140.75929 | 12311 ft | 382 kts | 128° |
| 2026-05-07 10:05 | 35.33583 | 140.78707 | 12544 ft | 395 kts | 120° |
| 2026-05-07 10:05 | 35.32697 | 140.81950 | 12894 ft | 409 kts | 104° |
| 2026-05-07 10:06 | 35.32489 | 140.85450 | 13380 ft | 417 kts | 91° |
| 2026-05-07 10:06 | 35.32833 | 140.89000 | 13862 ft | 422 kts | 83° |
| 2026-05-07 10:06 | 35.33333 | 140.92554 | 14277 ft | 426 kts | 84° |
| 2026-05-07 10:06 | 35.33805 | 140.96152 | 14725 ft | 429 kts | 83° |
| 2026-05-07 10:07 | 35.34288 | 140.99773 | 15184 ft | 432 kts | 83° |
| 2026-05-07 10:07 | 35.34776 | 141.03423 | 15628 ft | 436 kts | 83° |
| 2026-05-07 10:07 | 35.35268 | 141.07099 | 16054 ft | 439 kts | 83° |
| 2026-05-07 10:07 | 35.35754 | 141.10741 | 16479 ft | 441 kts | 83° |
| 2026-05-07 10:08 | 35.36251 | 141.14465 | 16904 ft | 444 kts | 83° |
| 2026-05-07 10:08 | 35.36733 | 141.18086 | 17306 ft | 447 kts | 83° |
| 2026-05-07 10:08 | 35.37249 | 141.21977 | 17719 ft | 449 kts | 83° |
| 2026-05-07 10:08 | 35.37752 | 141.25768 | 18115 ft | 452 kts | 83° |
| 2026-05-07 10:09 | 35.38341 | 141.29556 | 18455 ft | 455 kts | 77° |
| 2026-05-07 10:09 | 35.39420 | 141.33227 | 18811 ft | 460 kts | 66° |
| 2026-05-07 10:09 | 35.40995 | 141.36581 | 19228 ft | 461 kts | 56° |
| 2026-05-07 10:09 | 35.43012 | 141.39629 | 19622 ft | 461 kts | 48° |
| 2026-05-07 10:10 | 35.45178 | 141.42547 | 19951 ft | 463 kts | 47° |
| 2026-05-07 10:10 | 35.47355 | 141.45463 | 20314 ft | 465 kts | 47° |
| 2026-05-07 10:10 | 35.49553 | 141.48395 | 20600 ft | 469 kts | 47° |
| 2026-05-07 10:10 | 35.51766 | 141.51354 | 20915 ft | 471 kts | 47° |
| 2026-05-07 10:11 | 35.53981 | 141.54320 | 21270 ft | 472 kts | 47° |
| 2026-05-07 10:11 | 35.56202 | 141.57299 | 21583 ft | 474 kts | 47° |
| 2026-05-07 10:11 | 35.58431 | 141.60293 | 21881 ft | 476 kts | 47° |
| 2026-05-07 10:11 | 35.60643 | 141.63267 | 22171 ft | 479 kts | 47° |
| 2026-05-07 10:12 | 35.62890 | 141.66292 | 22455 ft | 481 kts | 47° |
| 2026-05-07 10:12 | 35.65151 | 141.69338 | 22733 ft | 483 kts | 47° |
| 2026-05-07 10:12 | 35.67420 | 141.72399 | 23004 ft | 485 kts | 47° |
| 2026-05-07 10:12 | 35.69697 | 141.75473 | 23271 ft | 487 kts | 47° |
| 2026-05-07 10:13 | 35.71986 | 141.78565 | 23537 ft | 490 kts | 47° |
| 2026-05-07 10:13 | 35.74284 | 141.81674 | 23791 ft | 492 kts | 47° |
| 2026-05-07 10:13 | 35.76589 | 141.84795 | 24038 ft | 494 kts | 47° |
| 2026-05-07 10:13 | 35.78873 | 141.87889 | 24271 ft | 496 kts | 47° |
| 2026-05-07 10:14 | 35.81199 | 141.91044 | 24486 ft | 498 kts | 47° |
| 2026-05-07 10:14 | 35.83531 | 141.94210 | 24701 ft | 501 kts | 47° |
| 2026-05-07 10:14 | 35.85880 | 141.97402 | 24913 ft | 503 kts | 47° |
| 2026-05-07 10:14 | 35.88236 | 142.00607 | 25119 ft | 506 kts | 47° |
| 2026-05-07 10:15 | 35.90598 | 142.03824 | 25323 ft | 508 kts | 47° |
| 2026-05-07 10:15 | 35.92977 | 142.07065 | 25524 ft | 510 kts | 47° |
| 2026-05-07 10:15 | 35.95359 | 142.10315 | 25720 ft | 512 kts | 47° |
| 2026-05-07 10:15 | 35.97723 | 142.13542 | 25908 ft | 514 kts | 47° |
| 2026-05-07 10:16 | 36.00124 | 142.16825 | 26097 ft | 517 kts | 47° |
| 2026-05-07 10:16 | 36.02539 | 142.20128 | 26285 ft | 519 kts | 47° |
| 2026-05-07 10:16 | 36.04957 | 142.23440 | 26472 ft | 521 kts | 47° |
| 2026-05-07 10:16 | 36.07387 | 142.26771 | 26654 ft | 523 kts | 47° |
| 2026-05-07 10:17 | 36.09827 | 142.30119 | 26832 ft | 525 kts | 47° |
| 2026-05-07 10:17 | 36.12269 | 142.33474 | 27008 ft | 527 kts | 47° |
| 2026-05-07 10:17 | 36.14724 | 142.36849 | 27183 ft | 529 kts | 47° |
| 2026-05-07 10:17 | 36.17187 | 142.40240 | 27357 ft | 530 kts | 47° |
| 2026-05-07 10:18 | 36.19624 | 142.43597 | 27525 ft | 532 kts | 48° |
| 2026-05-07 10:18 | 36.22102 | 142.47015 | 27693 ft | 534 kts | 48° |
| 2026-05-07 10:18 | 36.24588 | 142.50447 | 27854 ft | 536 kts | 48° |
| 2026-05-07 10:18 | 36.27076 | 142.53886 | 28013 ft | 538 kts | 48° |
| 2026-05-07 10:19 | 36.29580 | 142.57350 | 28170 ft | 540 kts | 48° |
| 2026-05-07 10:19 | 36.32084 | 142.60817 | 28378 ft | 540 kts | 48° |
| 2026-05-07 10:19 | 36.34591 | 142.64293 | 28531 ft | 541 kts | 48° |
| 2026-05-07 10:19 | 36.37106 | 142.67784 | 28668 ft | 543 kts | 48° |
| 2026-05-07 10:20 | 36.39590 | 142.71235 | 28809 ft | 544 kts | 48° |
| 2026-05-07 10:20 | 36.42115 | 142.74746 | 28945 ft | 546 kts | 48° |
| 2026-05-07 10:20 | 36.44641 | 142.78263 | 29080 ft | 547 kts | 48° |
| 2026-05-07 10:20 | 36.47177 | 142.81797 | 29212 ft | 548 kts | 48° |
| 2026-05-07 10:21 | 36.49719 | 142.85344 | 29339 ft | 550 kts | 48° |
| 2026-05-07 10:21 | 36.52261 | 142.88894 | 29492 ft | 550 kts | 48° |
| 2026-05-07 10:21 | 36.54803 | 142.92448 | 29689 ft | 550 kts | 48° |
| 2026-05-07 10:21 | 36.57343 | 142.96003 | 29878 ft | 550 kts | 47° |
| 2026-05-07 10:22 | 36.59880 | 142.99557 | 30165 ft | 548 kts | 47° |
| 2026-05-07 10:22 | 36.62374 | 143.03056 | 30385 ft | 547 kts | 47° |
| 2026-05-07 10:22 | 36.64898 | 143.06599 | 30596 ft | 547 kts | 47° |
| 2026-05-07 10:22 | 36.67416 | 143.10140 | 30819 ft | 547 kts | 47° |
| 2026-05-07 10:23 | 36.69941 | 143.13692 | 30868 ft | 547 kts | 47° |
| 2026-05-07 10:23 | 36.74980 | 143.20794 | 30874 ft | 547 kts | 47° |
| 2026-05-07 10:24 | 36.80011 | 143.27900 | 30875 ft | 547 kts | 48° |
| 2026-05-07 10:24 | 36.85006 | 143.34970 | 30875 ft | 547 kts | 48° |
| 2026-05-07 10:25 | 36.90033 | 143.42102 | 30875 ft | 547 kts | 48° |
| 2026-05-07 10:25 | 36.95053 | 143.49238 | 30876 ft | 547 kts | 48° |
| 2026-05-07 10:26 | 37.00066 | 143.56379 | 30877 ft | 547 kts | 48° |
| 2026-05-07 10:26 | 37.05044 | 143.63487 | 30877 ft | 547 kts | 48° |
| 2026-05-07 10:27 | 37.10054 | 143.70656 | 30876 ft | 547 kts | 48° |
| 2026-05-07 10:27 | 37.15055 | 143.77828 | 30875 ft | 547 kts | 48° |
| 2026-05-07 10:28 | 37.20054 | 143.85011 | 30875 ft | 547 kts | 48° |
| 2026-05-07 10:28 | 37.25017 | 143.92160 | 30876 ft | 547 kts | 48° |
| 2026-05-07 10:29 | 37.30011 | 143.99369 | 30877 ft | 547 kts | 48° |
| 2026-05-07 10:29 | 37.35002 | 144.06589 | 30876 ft | 547 kts | 48° |
| 2026-05-07 10:30 | 37.42445 | 144.17385 | 30875 ft | 547 kts | 48° |
| 2026-05-07 10:30 | 37.47422 | 144.24625 | 30875 ft | 547 kts | 48° |
| 2026-05-07 10:31 | 37.52400 | 144.31881 | 30876 ft | 547 kts | 48° |
| 2026-05-07 10:31 | 37.57367 | 144.39139 | 30877 ft | 547 kts | 49° |
| 2026-05-07 10:32 | 37.62331 | 144.46408 | 30876 ft | 547 kts | 49° |
| 2026-05-07 10:32 | 37.67259 | 144.53641 | 30875 ft | 547 kts | 49° |
| 2026-05-07 10:33 | 37.72215 | 144.60930 | 30875 ft | 547 kts | 49° |
| 2026-05-07 10:33 | 37.77170 | 144.68234 | 30875 ft | 547 kts | 49° |
| 2026-05-07 10:34 | 37.82118 | 144.75546 | 30876 ft | 547 kts | 49° |
| 2026-05-07 10:34 | 37.87028 | 144.82816 | 30877 ft | 547 kts | 49° |
| 2026-05-07 10:35 | 37.91969 | 144.90149 | 30876 ft | 547 kts | 49° |
| 2026-05-07 10:35 | 37.96900 | 144.97484 | 30874 ft | 547 kts | 49° |
| 2026-05-07 10:36 | 38.01828 | 145.04831 | 30873 ft | 547 kts | 49° |
| 2026-05-07 10:36 | 38.06752 | 145.12188 | 30873 ft | 547 kts | 49° |
| 2026-05-07 10:37 | 38.11637 | 145.19502 | 30874 ft | 547 kts | 49° |
| 2026-05-07 10:37 | 38.16585 | 145.26837 | 30875 ft | 547 kts | 49° |
| 2026-05-07 10:38 | 38.21496 | 145.34221 | 30875 ft | 547 kts | 49° |
| 2026-05-07 10:38 | 38.26395 | 145.41620 | 30874 ft | 547 kts | 49° |
| 2026-05-07 10:39 | 38.31296 | 145.49024 | 30874 ft | 548 kts | 49° |
| 2026-05-07 10:39 | 38.36476 | 145.56086 | 30874 ft | 550 kts | 43° |
| 2026-05-07 10:40 | 38.42121 | 145.62715 | 30875 ft | 553 kts | 40° |
| 2026-05-07 10:40 | 38.47857 | 145.69293 | 30875 ft | 556 kts | 41° |
| 2026-05-07 10:41 | 38.53528 | 145.75958 | 30875 ft | 559 kts | 41° |
| 2026-05-07 10:41 | 38.59228 | 145.82721 | 30872 ft | 559 kts | 41° |
| 2026-05-07 10:42 | 38.64954 | 145.89453 | 30848 ft | 560 kts | 41° |
| 2026-05-07 10:42 | 38.70693 | 145.96255 | 30849 ft | 564 kts | 40° |
| 2026-05-07 10:43 | 38.76457 | 146.03123 | 30848 ft | 568 kts | 41° |
| 2026-05-07 10:43 | 38.82205 | 146.09994 | 30847 ft | 570 kts | 41° |
| 2026-05-07 10:44 | 38.88009 | 146.16951 | 30845 ft | 571 kts | 41° |
| 2026-05-07 10:44 | 38.93806 | 146.23915 | 30845 ft | 570 kts | 41° |
| 2026-05-07 10:45 | 38.99594 | 146.30885 | 30846 ft | 570 kts | 41° |
| 2026-05-07 10:45 | 39.05338 | 146.37819 | 30847 ft | 570 kts | 41° |
| 2026-05-07 10:46 | 39.11121 | 146.44816 | 30848 ft | 570 kts | 41° |
| 2026-05-07 10:46 | 39.16897 | 146.51820 | 30847 ft | 570 kts | 41° |
| 2026-05-07 10:47 | 39.22666 | 146.58834 | 30846 ft | 570 kts | 41° |
| 2026-05-07 10:47 | 39.28397 | 146.65818 | 30845 ft | 570 kts | 41° |
| 2026-05-07 10:48 | 39.34163 | 146.72860 | 30845 ft | 570 kts | 41° |
| 2026-05-07 10:48 | 39.39922 | 146.79911 | 30846 ft | 570 kts | 41° |
| 2026-05-07 10:49 | 39.45665 | 146.86960 | 30805 ft | 568 kts | 40° |
| 2026-05-07 10:49 | 39.51377 | 146.93987 | 30787 ft | 566 kts | 40° |
| 2026-05-07 10:50 | 39.57041 | 147.00971 | 30788 ft | 566 kts | 40° |
| 2026-05-07 10:50 | 39.62746 | 147.08023 | 30788 ft | 567 kts | 40° |
| 2026-05-07 10:51 | 39.68452 | 147.15093 | 30787 ft | 567 kts | 40° |
| 2026-05-07 10:51 | 39.74147 | 147.22166 | 30786 ft | 567 kts | 40° |
| 2026-05-07 10:52 | 39.79841 | 147.29255 | 30786 ft | 567 kts | 40° |
| 2026-05-07 10:52 | 39.85494 | 147.36310 | 30787 ft | 567 kts | 40° |
| 2026-05-07 10:53 | 39.91182 | 147.43427 | 30788 ft | 567 kts | 40° |
| 2026-05-07 10:53 | 39.96862 | 147.50549 | 30788 ft | 567 kts | 41° |
| 2026-05-07 10:54 | 40.02542 | 147.57690 | 30788 ft | 567 kts | 41° |
| 2026-05-07 10:54 | 40.08175 | 147.64789 | 30787 ft | 567 kts | 41° |
| 2026-05-07 10:55 | 40.13847 | 147.71955 | 30786 ft | 567 kts | 41° |
| 2026-05-07 10:55 | 40.19511 | 147.79127 | 30786 ft | 567 kts | 41° |
| 2026-05-07 10:56 | 40.25177 | 147.86320 | 30814 ft | 569 kts | 40° |
| 2026-05-07 10:56 | 40.30862 | 147.93555 | 30817 ft | 572 kts | 40° |
| 2026-05-07 10:57 | 40.36523 | 148.00777 | 30817 ft | 572 kts | 40° |
| 2026-05-07 10:57 | 40.42232 | 148.08078 | 30818 ft | 572 kts | 40° |
| 2026-05-07 10:58 | 40.47925 | 148.15378 | 30817 ft | 572 kts | 40° |
| 2026-05-07 10:58 | 40.53609 | 148.22684 | 30816 ft | 572 kts | 40° |
| 2026-05-07 10:59 | 40.59293 | 148.30008 | 30815 ft | 572 kts | 40° |
| 2026-05-07 10:59 | 40.64937 | 148.37299 | 30816 ft | 572 kts | 40° |
| 2026-05-07 11:00 | 40.70609 | 148.44644 | 30817 ft | 572 kts | 40° |
| 2026-05-07 11:00 | 40.76280 | 148.52008 | 30818 ft | 572 kts | 40° |
| 2026-05-07 11:01 | 40.81951 | 148.59390 | 30818 ft | 572 kts | 40° |
| 2026-05-07 11:01 | 40.87584 | 148.66717 | 30816 ft | 572 kts | 40° |
| 2026-05-07 11:02 | 40.93249 | 148.74098 | 30815 ft | 572 kts | 40° |
| 2026-05-07 11:02 | 40.98895 | 148.81528 | 30817 ft | 572 kts | 40° |
| 2026-05-07 11:03 | 41.04517 | 148.88943 | 30845 ft | 569 kts | 40° |
| 2026-05-07 11:03 | 41.10115 | 148.96334 | 30845 ft | 568 kts | 40° |
| 2026-05-07 11:04 | 41.15669 | 149.03701 | 30845 ft | 568 kts | 40° |
| 2026-05-07 11:04 | 41.21251 | 149.11139 | 30846 ft | 569 kts | 40° |
| 2026-05-07 11:05 | 41.26824 | 149.18591 | 30847 ft | 569 kts | 40° |
| 2026-05-07 11:05 | 41.32398 | 149.26065 | 30847 ft | 569 kts | 40° |
| 2026-05-07 11:06 | 41.37967 | 149.33448 | 30846 ft | 569 kts | 40° |
| 2026-05-07 11:06 | 41.43552 | 149.40891 | 30845 ft | 569 kts | 40° |
| 2026-05-07 11:07 | 41.49130 | 149.48375 | 30845 ft | 569 kts | 40° |
| 2026-05-07 11:07 | 41.54701 | 149.55879 | 30847 ft | 569 kts | 40° |
| 2026-05-07 11:08 | 41.60226 | 149.63342 | 30847 ft | 569 kts | 40° |
| 2026-05-07 11:08 | 41.65780 | 149.70866 | 30847 ft | 569 kts | 40° |
| 2026-05-07 11:09 | 41.71333 | 149.78407 | 30846 ft | 569 kts | 40° |
| 2026-05-07 11:09 | 41.76887 | 149.85970 | 30845 ft | 569 kts | 41° |
| 2026-05-07 11:10 | 41.82391 | 149.93486 | 30845 ft | 569 kts | 41° |
| 2026-05-07 11:10 | 41.87923 | 150.01058 | 30847 ft | 569 kts | 41° |
| 2026-05-07 11:11 | 41.93459 | 150.08656 | 30847 ft | 569 kts | 41° |
| 2026-05-07 11:11 | 41.98982 | 150.16257 | 30847 ft | 569 kts | 41° |
| 2026-05-07 11:12 | 42.04509 | 150.23883 | 30845 ft | 569 kts | 41° |
| 2026-05-07 11:12 | 42.09986 | 150.31459 | 30845 ft | 569 kts | 41° |
| 2026-05-07 11:13 | 42.15503 | 150.39112 | 30846 ft | 569 kts | 41° |
| 2026-05-07 11:13 | 42.21013 | 150.46776 | 30847 ft | 569 kts | 41° |
| 2026-05-07 11:14 | 42.26514 | 150.54448 | 30847 ft | 569 kts | 41° |
| 2026-05-07 11:14 | 42.31979 | 150.62089 | 30847 ft | 569 kts | 41° |
| 2026-05-07 11:15 | 42.37472 | 150.69790 | 30845 ft | 569 kts | 41° |
| 2026-05-07 11:15 | 42.42962 | 150.77508 | 30845 ft | 569 kts | 41° |
| 2026-05-07 11:16 | 42.48447 | 150.85240 | 30846 ft | 569 kts | 41° |
| 2026-05-07 11:16 | 42.53892 | 150.92933 | 30847 ft | 569 kts | 43° |
| 2026-05-07 11:17 | 42.59355 | 151.00678 | 30847 ft | 567 kts | 43° |
| 2026-05-07 11:17 | 42.64806 | 151.08422 | 30847 ft | 568 kts | 43° |
| 2026-05-07 11:18 | 42.70259 | 151.16193 | 30845 ft | 568 kts | 43° |
| 2026-05-07 11:18 | 42.75667 | 151.23920 | 30845 ft | 568 kts | 43° |
| 2026-05-07 11:19 | 42.81111 | 151.31719 | 30846 ft | 568 kts | 43° |
| 2026-05-07 11:19 | 42.86547 | 151.39529 | 30847 ft | 568 kts | 43° |
| 2026-05-07 11:20 | 42.91978 | 151.47351 | 30847 ft | 568 kts | 43° |
| 2026-05-07 11:20 | 42.97406 | 151.55191 | 30846 ft | 568 kts | 43° |
| 2026-05-07 11:21 | 43.02826 | 151.63043 | 30845 ft | 568 kts | 43° |
| 2026-05-07 11:21 | 43.08207 | 151.70858 | 30846 ft | 568 kts | 43° |
| 2026-05-07 11:22 | 43.13619 | 151.78740 | 30847 ft | 568 kts | 43° |
| 2026-05-07 11:22 | 43.19024 | 151.86635 | 30847 ft | 568 kts | 43° |
| 2026-05-07 11:23 | 43.24425 | 151.94544 | 30847 ft | 568 kts | 44° |
| 2026-05-07 11:23 | 43.29769 | 152.02393 | 30823 ft | 563 kts | 44° |
| 2026-05-07 11:24 | 43.35087 | 152.10224 | 30844 ft | 558 kts | 44° |
| 2026-05-07 11:24 | 43.40365 | 152.18019 | 30792 ft | 558 kts | 44° |
| 2026-05-07 11:25 | 43.45650 | 152.25844 | 30823 ft | 558 kts | 44° |
| 2026-05-07 11:25 | 43.50894 | 152.33631 | 30818 ft | 558 kts | 44° |
| 2026-05-07 11:26 | 43.56163 | 152.41477 | 30818 ft | 558 kts | 44° |
| 2026-05-07 11:26 | 43.61432 | 152.49344 | 30816 ft | 558 kts | 44° |
| 2026-05-07 11:27 | 43.66700 | 152.57231 | 30815 ft | 558 kts | 44° |
| 2026-05-07 11:27 | 43.71954 | 152.65120 | 30816 ft | 558 kts | 44° |
| 2026-05-07 11:28 | 43.77170 | 152.72972 | 30817 ft | 558 kts | 44° |
| 2026-05-07 11:28 | 43.82421 | 152.80901 | 30818 ft | 558 kts | 44° |
| 2026-05-07 11:29 | 43.87663 | 152.88837 | 30817 ft | 558 kts | 44° |
| 2026-05-07 11:29 | 43.92899 | 152.96787 | 30816 ft | 558 kts | 44° |
| 2026-05-07 11:30 | 43.98099 | 153.04705 | 30816 ft | 558 kts | 44° |
| 2026-05-07 11:30 | 44.03332 | 153.12694 | 30817 ft | 561 kts | 43° |
| 2026-05-07 11:31 | 44.08583 | 153.20734 | 30818 ft | 562 kts | 43° |
| 2026-05-07 11:31 | 44.13826 | 153.28785 | 30818 ft | 561 kts | 43° |
| 2026-05-07 11:32 | 44.21681 | 153.40891 | 30816 ft | 561 kts | 44° |
| 2026-05-07 11:33 | 44.26876 | 153.48924 | 30815 ft | 561 kts | 44° |
| 2026-05-07 11:33 | 44.32096 | 153.57021 | 30816 ft | 561 kts | 44° |
| 2026-05-07 11:34 | 44.37315 | 153.65140 | 30818 ft | 561 kts | 44° |
| 2026-05-07 11:34 | 44.42528 | 153.73271 | 30818 ft | 561 kts | 44° |
| 2026-05-07 11:35 | 44.47733 | 153.81415 | 30816 ft | 562 kts | 44° |
| 2026-05-07 11:35 | 44.52939 | 153.89583 | 30816 ft | 562 kts | 44° |
| 2026-05-07 11:36 | 44.58102 | 153.97708 | 30816 ft | 562 kts | 44° |
| 2026-05-07 11:36 | 44.63290 | 154.05895 | 30817 ft | 562 kts | 44° |
| 2026-05-07 11:37 | 44.68502 | 154.14069 | 30818 ft | 562 kts | 44° |
| 2026-05-07 11:37 | 44.73644 | 154.22247 | 30816 ft | 563 kts | 44° |
| 2026-05-07 11:38 | 44.78831 | 154.30538 | 30816 ft | 566 kts | 44° |
| 2026-05-07 11:38 | 44.84028 | 154.38858 | 30817 ft | 565 kts | 43° |
| 2026-05-07 11:39 | 44.89190 | 154.47217 | 30818 ft | 565 kts | 44° |
| 2026-05-07 11:39 | 44.94289 | 154.55673 | 30817 ft | 566 kts | 45° |
| 2026-05-07 11:40 | 44.99352 | 154.64091 | 30816 ft | 566 kts | 45° |
| 2026-05-07 11:40 | 45.04443 | 154.72577 | 30816 ft | 566 kts | 45° |
| 2026-05-07 11:41 | 45.09535 | 154.81065 | 30817 ft | 566 kts | 44° |
| 2026-05-07 11:41 | 45.14676 | 154.89509 | 30818 ft | 566 kts | 44° |
| 2026-05-07 11:42 | 45.19747 | 154.97935 | 30817 ft | 566 kts | 45° |
| 2026-05-07 11:42 | 45.24839 | 155.06453 | 30816 ft | 566 kts | 45° |
| 2026-05-07 11:43 | 45.29922 | 155.14991 | 30816 ft | 566 kts | 45° |
| 2026-05-07 11:43 | 45.34997 | 155.23544 | 30817 ft | 566 kts | 45° |
| 2026-05-07 11:44 | 45.40034 | 155.32059 | 30818 ft | 566 kts | 45° |
| 2026-05-07 11:44 | 45.45087 | 155.40629 | 30789 ft | 561 kts | 44° |
| 2026-05-07 11:45 | 45.50061 | 155.49089 | 30759 ft | 554 kts | 44° |
| 2026-05-07 11:45 | 45.54996 | 155.57508 | 30757 ft | 551 kts | 44° |
| 2026-05-07 11:46 | 45.59873 | 155.65854 | 30759 ft | 552 kts | 44° |
| 2026-05-07 11:46 | 45.64792 | 155.74296 | 30759 ft | 553 kts | 45° |
| 2026-05-07 11:47 | 45.69700 | 155.82746 | 30757 ft | 553 kts | 45° |
| 2026-05-07 11:47 | 45.74607 | 155.91219 | 30756 ft | 553 kts | 45° |
| 2026-05-07 11:48 | 45.79470 | 155.99642 | 30757 ft | 553 kts | 45° |
| 2026-05-07 11:48 | 45.84366 | 156.08148 | 30759 ft | 553 kts | 45° |
| 2026-05-07 11:49 | 45.89251 | 156.16661 | 30759 ft | 553 kts | 45° |
| 2026-05-07 11:49 | 45.94131 | 156.25190 | 30757 ft | 553 kts | 45° |
| 2026-05-07 11:50 | 45.99008 | 156.33742 | 30756 ft | 553 kts | 45° |
| 2026-05-07 11:50 | 46.03843 | 156.42245 | 30757 ft | 553 kts | 45° |
| 2026-05-07 11:51 | 46.08709 | 156.50828 | 30759 ft | 553 kts | 45° |
| 2026-05-07 11:51 | 46.13569 | 156.59428 | 30759 ft | 555 kts | 45° |
| 2026-05-07 11:52 | 46.18456 | 156.68102 | 30760 ft | 559 kts | 45° |
| 2026-05-07 11:52 | 46.23322 | 156.76768 | 30758 ft | 559 kts | 45° |
| 2026-05-07 11:53 | 46.28210 | 156.85497 | 30757 ft | 559 kts | 45° |
| 2026-05-07 11:53 | 46.33091 | 156.94244 | 30757 ft | 558 kts | 45° |
| 2026-05-07 11:54 | 46.37964 | 157.03002 | 30758 ft | 559 kts | 46° |
| 2026-05-07 11:54 | 46.42800 | 157.11723 | 30759 ft | 559 kts | 46° |
| 2026-05-07 11:55 | 46.47663 | 157.20518 | 30758 ft | 559 kts | 46° |
| 2026-05-07 11:55 | 46.52518 | 157.29328 | 30757 ft | 559 kts | 46° |
| 2026-05-07 11:56 | 46.57365 | 157.38152 | 30757 ft | 559 kts | 46° |
| 2026-05-07 11:56 | 46.62211 | 157.47001 | 30758 ft | 559 kts | 46° |
| 2026-05-07 11:57 | 46.67017 | 157.55807 | 30759 ft | 559 kts | 46° |
| 2026-05-07 11:57 | 46.71848 | 157.64684 | 30758 ft | 559 kts | 46° |
| 2026-05-07 11:58 | 46.76668 | 157.73573 | 30757 ft | 559 kts | 46° |
| 2026-05-07 11:58 | 46.81491 | 157.82494 | 30754 ft | 561 kts | 46° |
| 2026-05-07 11:59 | 46.86307 | 157.91430 | 30756 ft | 566 kts | 45° |
| 2026-05-07 11:59 | 46.91183 | 158.00508 | 30758 ft | 569 kts | 45° |
| 2026-05-07 12:00 | 46.96059 | 158.09616 | 30759 ft | 568 kts | 45° |
| 2026-05-07 12:00 | 47.00922 | 158.18730 | 30758 ft | 567 kts | 46° |
| 2026-05-07 12:01 | 47.05742 | 158.27793 | 30757 ft | 568 kts | 46° |
| 2026-05-07 12:01 | 47.10590 | 158.36939 | 30757 ft | 568 kts | 46° |
| 2026-05-07 12:02 | 47.15465 | 158.46167 | 30758 ft | 568 kts | 46° |
| 2026-05-07 12:02 | 47.20303 | 158.55355 | 30759 ft | 568 kts | 46° |
| 2026-05-07 12:03 | 47.25130 | 158.64552 | 30757 ft | 568 kts | 46° |
| 2026-05-07 12:03 | 47.29920 | 158.73712 | 30756 ft | 568 kts | 46° |
| 2026-05-07 12:04 | 47.34734 | 158.82946 | 30757 ft | 568 kts | 46° |
| 2026-05-07 12:04 | 47.39541 | 158.92198 | 30759 ft | 568 kts | 46° |
| 2026-05-07 12:05 | 47.44343 | 159.01473 | 30758 ft | 568 kts | 46° |
| 2026-05-07 12:05 | 47.48750 | 159.10013 | 30787 ft | 567 kts | 46° |
| 2026-05-07 12:06 | 47.53529 | 159.19302 | 30789 ft | 569 kts | 46° |
| 2026-05-07 12:06 | 47.58334 | 159.28674 | 30789 ft | 573 kts | 46° |
| 2026-05-07 12:07 | 47.63164 | 159.38129 | 30788 ft | 577 kts | 46° |
| 2026-05-07 12:07 | 47.68012 | 159.47650 | 30786 ft | 580 kts | 46° |
| 2026-05-07 12:08 | 47.72874 | 159.57233 | 30786 ft | 582 kts | 47° |
| 2026-05-07 12:08 | 47.77705 | 159.66787 | 30788 ft | 581 kts | 47° |
| 2026-05-07 12:09 | 47.82552 | 159.76409 | 30789 ft | 581 kts | 47° |
| 2026-05-07 12:09 | 47.87392 | 159.86049 | 30788 ft | 581 kts | 47° |
| 2026-05-07 12:10 | 47.92222 | 159.95704 | 30786 ft | 581 kts | 47° |
| 2026-05-07 12:10 | 47.97018 | 160.05323 | 30786 ft | 581 kts | 47° |
| 2026-05-07 12:11 | 48.01832 | 160.15015 | 30787 ft | 582 kts | 47° |
| 2026-05-07 12:11 | 48.06645 | 160.24739 | 30788 ft | 582 kts | 47° |
| 2026-05-07 12:12 | 48.11474 | 160.34448 | 30787 ft | 581 kts | 47° |
| 2026-05-07 12:12 | 48.16286 | 160.44221 | 30788 ft | 585 kts | 46° |
| 2026-05-07 12:13 | 48.21064 | 160.54034 | 30787 ft | 589 kts | 47° |
| 2026-05-07 12:13 | 48.25898 | 160.63977 | 30786 ft | 591 kts | 47° |
| 2026-05-07 12:14 | 48.30707 | 160.74001 | 30787 ft | 592 kts | 48° |
| 2026-05-07 12:14 | 48.35360 | 160.84228 | 30789 ft | 593 kts | 49° |
| 2026-05-07 12:15 | 48.39973 | 160.94405 | 30789 ft | 593 kts | 49° |
| 2026-05-07 12:15 | 48.44624 | 161.04664 | 30787 ft | 593 kts | 49° |
| 2026-05-07 12:16 | 48.49286 | 161.14915 | 30785 ft | 593 kts | 48° |
| 2026-05-07 12:16 | 48.53999 | 161.25117 | 30786 ft | 593 kts | 49° |
| 2026-05-07 12:17 | 48.58634 | 161.35303 | 30788 ft | 593 kts | 49° |
| 2026-05-07 12:17 | 48.63284 | 161.45602 | 30789 ft | 593 kts | 49° |
| 2026-05-07 12:18 | 48.67922 | 161.55923 | 30788 ft | 593 kts | 49° |
| 2026-05-07 12:18 | 48.72547 | 161.66257 | 30786 ft | 593 kts | 49° |
| 2026-05-07 12:19 | 48.77148 | 161.76578 | 30739 ft | 597 kts | 49° |
| 2026-05-07 12:19 | 48.81797 | 161.87046 | 30730 ft | 600 kts | 50° |
| 2026-05-07 12:20 | 48.86455 | 161.97576 | 30728 ft | 602 kts | 50° |
| 2026-05-07 12:20 | 48.91115 | 162.08154 | 30727 ft | 602 kts | 50° |
| 2026-05-07 12:21 | 48.95731 | 162.18671 | 30727 ft | 602 kts | 50° |
| 2026-05-07 12:21 | 49.00364 | 162.29268 | 30729 ft | 602 kts | 50° |
| 2026-05-07 12:22 | 49.04992 | 162.39898 | 30730 ft | 602 kts | 50° |
| 2026-05-07 12:22 | 49.09610 | 162.50546 | 30728 ft | 602 kts | 50° |
| 2026-05-07 12:23 | 49.13443 | 162.59415 | 30730 ft | 602 kts | 50° |
| 2026-05-07 12:23 | 49.18788 | 162.71835 | 30727 ft | 602 kts | 50° |
| 2026-05-07 12:24 | 49.23379 | 162.82548 | 30728 ft | 602 kts | 50° |
| 2026-05-07 12:24 | 49.27188 | 162.91468 | 30727 ft | 602 kts | 50° |
| 2026-05-07 12:25 | 49.31764 | 163.02227 | 30728 ft | 602 kts | 51° |
| 2026-05-07 12:25 | 49.36296 | 163.12923 | 30703 ft | 602 kts | 50° |
| 2026-05-07 12:26 | 49.40878 | 163.23781 | 30699 ft | 602 kts | 50° |
| 2026-05-07 12:26 | 49.45418 | 163.34585 | 30700 ft | 602 kts | 50° |
| 2026-05-07 12:27 | 49.49919 | 163.45339 | 30700 ft | 602 kts | 50° |
| 2026-05-07 12:27 | 49.54444 | 163.56194 | 30698 ft | 602 kts | 50° |
| 2026-05-07 12:28 | 49.58955 | 163.67060 | 30697 ft | 602 kts | 50° |
| 2026-05-07 12:28 | 49.63459 | 163.77955 | 30698 ft | 602 kts | 50° |
| 2026-05-07 12:29 | 49.67926 | 163.88803 | 30700 ft | 603 kts | 51° |
| 2026-05-07 12:29 | 49.72409 | 163.99735 | 30700 ft | 603 kts | 51° |
| 2026-05-07 12:30 | 49.76884 | 164.10694 | 30698 ft | 603 kts | 51° |
| 2026-05-07 12:30 | 49.81351 | 164.21679 | 30697 ft | 603 kts | 51° |
| 2026-05-07 12:31 | 49.85781 | 164.32618 | 30698 ft | 603 kts | 51° |
| 2026-05-07 12:31 | 49.90225 | 164.43636 | 30700 ft | 603 kts | 51° |
| 2026-05-07 12:32 | 49.94398 | 164.54031 | 30700 ft | 603 kts | 50° |
| 2026-05-07 12:32 | 49.98831 | 164.65109 | 30700 ft | 604 kts | 50° |
| 2026-05-07 12:33 | 50.05474 | 164.81642 | 30697 ft | 604 kts | 50° |
| 2026-05-07 12:33 | 50.09859 | 164.92795 | 30697 ft | 604 kts | 51° |
| 2026-05-07 12:34 | 50.14245 | 165.03948 | 30696 ft | 602 kts | 49° |
| 2026-05-07 12:34 | 50.19305 | 165.14108 | 30700 ft | 584 kts | 36° |
| 2026-05-07 12:35 | 50.25258 | 165.22369 | 30706 ft | 572 kts | 28° |
| 2026-05-07 12:35 | 50.31499 | 165.30010 | 30699 ft | 568 kts | 27° |
| 2026-05-07 12:36 | 50.37690 | 165.37694 | 30698 ft | 568 kts | 27° |
| 2026-05-07 12:36 | 50.43853 | 165.45471 | 30697 ft | 569 kts | 28° |
| 2026-05-07 12:37 | 50.50043 | 165.53200 | 30698 ft | 569 kts | 27° |
| 2026-05-07 12:37 | 50.56181 | 165.60918 | 30700 ft | 569 kts | 27° |
| 2026-05-07 12:38 | 50.62346 | 165.68741 | 30700 ft | 569 kts | 28° |
| 2026-05-07 12:38 | 50.68504 | 165.76591 | 30713 ft | 568 kts | 29° |
| 2026-05-07 12:39 | 50.74599 | 165.84399 | 30729 ft | 561 kts | 30° |
| 2026-05-07 12:39 | 50.80646 | 165.92172 | 30727 ft | 561 kts | 30° |
| 2026-05-07 12:40 | 50.86659 | 165.99928 | 30727 ft | 562 kts | 31° |
| 2026-05-07 12:40 | 50.92712 | 166.07762 | 30728 ft | 562 kts | 31° |
| 2026-05-07 12:41 | 50.98763 | 166.15620 | 30730 ft | 562 kts | 31° |
| 2026-05-07 12:41 | 51.04810 | 166.23501 | 30729 ft | 562 kts | 31° |
| 2026-05-07 12:42 | 51.10849 | 166.31399 | 30727 ft | 562 kts | 31° |
| 2026-05-07 12:42 | 51.16837 | 166.39258 | 30726 ft | 560 kts | 31° |
| 2026-05-07 12:43 | 51.22820 | 166.47137 | 30727 ft | 556 kts | 31° |
| 2026-05-07 12:43 | 51.28777 | 166.55009 | 30729 ft | 556 kts | 31° |
| 2026-05-07 12:44 | 51.34735 | 166.62911 | 30729 ft | 557 kts | 31° |
| 2026-05-07 12:44 | 51.40652 | 166.70785 | 30727 ft | 557 kts | 31° |
| 2026-05-07 12:45 | 51.46613 | 166.78744 | 30727 ft | 557 kts | 31° |
| 2026-05-07 12:45 | 51.52558 | 166.86707 | 30760 ft | 554 kts | 34° |
| 2026-05-07 12:46 | 51.58379 | 166.94539 | 30789 ft | 541 kts | 35° |
| 2026-05-07 12:46 | 51.64082 | 167.02236 | 30788 ft | 537 kts | 35° |
| 2026-05-07 12:47 | 51.69806 | 167.09985 | 30787 ft | 538 kts | 35° |
| 2026-05-07 12:47 | 51.75536 | 167.17771 | 30786 ft | 539 kts | 35° |
| 2026-05-07 12:48 | 51.81270 | 167.25589 | 30787 ft | 539 kts | 36° |
| 2026-05-07 12:48 | 51.86993 | 167.33418 | 30788 ft | 539 kts | 36° |
| 2026-05-07 12:49 | 51.92677 | 167.41220 | 30788 ft | 539 kts | 36° |
| 2026-05-07 12:49 | 51.98389 | 167.49089 | 30786 ft | 539 kts | 36° |
| 2026-05-07 12:50 | 52.04104 | 167.56990 | 30786 ft | 539 kts | 36° |
| 2026-05-07 12:50 | 52.09808 | 167.64902 | 30788 ft | 539 kts | 36° |
| 2026-05-07 12:51 | 52.15473 | 167.72787 | 30789 ft | 539 kts | 36° |
| 2026-05-07 12:51 | 52.21172 | 167.80747 | 30788 ft | 539 kts | 36° |
| 2026-05-07 12:52 | 52.26862 | 167.88724 | 30786 ft | 540 kts | 36° |
| 2026-05-07 12:52 | 52.32549 | 167.96724 | 30786 ft | 540 kts | 36° |
| 2026-05-07 12:53 | 52.38166 | 168.04653 | 30785 ft | 534 kts | 37° |
| 2026-05-07 12:53 | 52.43779 | 168.12604 | 30786 ft | 532 kts | 37° |
| 2026-05-07 12:54 | 52.49375 | 168.20559 | 30788 ft | 533 kts | 37° |
| 2026-05-07 12:54 | 52.54977 | 168.28550 | 30789 ft | 534 kts | 37° |
| 2026-05-07 12:55 | 52.60539 | 168.36513 | 30787 ft | 534 kts | 37° |
| 2026-05-07 12:55 | 52.66131 | 168.44545 | 30786 ft | 534 kts | 37° |
| 2026-05-07 12:56 | 52.71720 | 168.52603 | 30787 ft | 534 kts | 37° |
| 2026-05-07 12:56 | 52.77303 | 168.60680 | 30788 ft | 534 kts | 37° |
| 2026-05-07 12:57 | 52.82879 | 168.68776 | 30788 ft | 534 kts | 37° |
| 2026-05-07 12:57 | 52.88414 | 168.76840 | 30786 ft | 534 kts | 37° |
| 2026-05-07 12:58 | 52.93982 | 168.84982 | 30786 ft | 534 kts | 37° |
| 2026-05-07 12:58 | 52.99544 | 168.93144 | 30788 ft | 534 kts | 37° |
| 2026-05-07 12:59 | 53.05105 | 169.01334 | 30788 ft | 534 kts | 37° |
| 2026-05-07 12:59 | 53.10624 | 169.09491 | 30787 ft | 534 kts | 37° |
| 2026-05-07 13:00 | 53.16168 | 169.17714 | 30787 ft | 534 kts | 38° |
| 2026-05-07 13:00 | 53.21680 | 169.25919 | 30789 ft | 528 kts | 39° |
| 2026-05-07 13:01 | 53.27138 | 169.34074 | 30789 ft | 526 kts | 39° |
| 2026-05-07 13:01 | 53.32559 | 169.42203 | 30788 ft | 527 kts | 40° |
| 2026-05-07 13:02 | 53.38013 | 169.50409 | 30786 ft | 528 kts | 40° |
| 2026-05-07 13:02 | 53.43466 | 169.58644 | 30786 ft | 528 kts | 40° |
| 2026-05-07 13:03 | 53.48915 | 169.66903 | 30788 ft | 527 kts | 40° |
| 2026-05-07 13:03 | 53.54352 | 169.75174 | 30788 ft | 527 kts | 40° |
| 2026-05-07 13:04 | 53.59789 | 169.83473 | 30786 ft | 528 kts | 40° |
| 2026-05-07 13:04 | 53.65181 | 169.91735 | 30786 ft | 528 kts | 40° |
| 2026-05-07 13:05 | 53.70604 | 170.00074 | 30788 ft | 528 kts | 40° |
| 2026-05-07 13:05 | 53.76021 | 170.08434 | 30789 ft | 528 kts | 40° |
| 2026-05-07 13:06 | 53.81435 | 170.16821 | 30787 ft | 528 kts | 40° |
| 2026-05-07 13:06 | 53.86808 | 170.25173 | 30786 ft | 528 kts | 40° |
| 2026-05-07 13:07 | 53.92206 | 170.33596 | 30787 ft | 528 kts | 40° |
| 2026-05-07 13:07 | 53.97608 | 170.42053 | 30791 ft | 526 kts | 41° |
| 2026-05-07 13:08 | 54.02957 | 170.50465 | 30788 ft | 522 kts | 42° |
| 2026-05-07 13:08 | 54.08236 | 170.58794 | 30787 ft | 521 kts | 43° |
| 2026-05-07 13:09 | 54.13546 | 170.67201 | 30786 ft | 522 kts | 43° |
| 2026-05-07 13:09 | 54.18862 | 170.75649 | 30787 ft | 522 kts | 43° |
| 2026-05-07 13:10 | 54.24164 | 170.84107 | 30789 ft | 522 kts | 43° |
| 2026-05-07 13:10 | 54.29429 | 170.92536 | 30787 ft | 522 kts | 43° |
| 2026-05-07 13:11 | 54.34722 | 171.01041 | 30786 ft | 522 kts | 43° |
| 2026-05-07 13:11 | 54.40010 | 171.09570 | 30787 ft | 522 kts | 43° |
| 2026-05-07 13:12 | 54.45288 | 171.18114 | 30788 ft | 522 kts | 43° |
| 2026-05-07 13:12 | 54.50565 | 171.26689 | 30788 ft | 522 kts | 43° |
| 2026-05-07 13:13 | 54.55797 | 171.35222 | 30786 ft | 522 kts | 43° |
| 2026-05-07 13:13 | 54.61064 | 171.43845 | 30786 ft | 522 kts | 43° |
| 2026-05-07 13:14 | 54.66319 | 171.52479 | 30788 ft | 522 kts | 43° |
| 2026-05-07 13:14 | 54.71581 | 171.61130 | 30788 ft | 522 kts | 43° |
| 2026-05-07 13:15 | 54.76849 | 171.69755 | 30787 ft | 520 kts | 45° |
| 2026-05-07 13:15 | 54.82003 | 171.78370 | 30785 ft | 516 kts | 46° |
| 2026-05-07 13:16 | 54.87151 | 171.87003 | 30787 ft | 515 kts | 46° |
| 2026-05-07 13:16 | 54.92302 | 171.95648 | 30789 ft | 515 kts | 46° |
| 2026-05-07 13:17 | 54.97515 | 172.04230 | 30787 ft | 516 kts | 44° |
| 2026-05-07 13:17 | 55.02823 | 172.12524 | 30786 ft | 516 kts | 44° |
| 2026-05-07 13:18 | 55.08140 | 172.20930 | 30786 ft | 516 kts | 44° |
| 2026-05-07 13:18 | 55.13436 | 172.29395 | 30788 ft | 516 kts | 44° |
| 2026-05-07 13:19 | 55.18724 | 172.37896 | 30788 ft | 516 kts | 44° |
| 2026-05-07 13:19 | 55.24051 | 172.46309 | 30787 ft | 516 kts | 44° |
| 2026-05-07 13:20 | 55.29330 | 172.54714 | 30786 ft | 516 kts | 44° |
| 2026-05-07 13:20 | 55.34625 | 172.63234 | 30787 ft | 516 kts | 45° |
| 2026-05-07 13:21 | 55.39903 | 172.71780 | 30789 ft | 516 kts | 45° |
| 2026-05-07 13:21 | 55.45178 | 172.80361 | 30787 ft | 516 kts | 45° |
| 2026-05-07 13:22 | 55.50409 | 172.88902 | 30786 ft | 516 kts | 45° |
| 2026-05-07 13:22 | 55.54899 | 172.96262 | 30786 ft | 516 kts | 45° |
| 2026-05-07 13:23 | 55.60135 | 173.04872 | 30787 ft | 513 kts | 47° |
| 2026-05-07 13:23 | 55.65348 | 173.13481 | 30789 ft | 513 kts | 47° |
| 2026-05-07 13:24 | 55.70525 | 173.22060 | 30788 ft | 513 kts | 47° |
| 2026-05-07 13:24 | 55.75730 | 173.30720 | 30786 ft | 513 kts | 47° |
| 2026-05-07 13:25 | 55.80928 | 173.39403 | 30786 ft | 513 kts | 47° |
| 2026-05-07 13:25 | 55.86120 | 173.48106 | 30788 ft | 513 kts | 47° |
| 2026-05-07 13:26 | 55.91307 | 173.56837 | 30788 ft | 513 kts | 47° |
| 2026-05-07 13:26 | 55.96450 | 173.65526 | 30786 ft | 513 kts | 48° |
| 2026-05-07 13:27 | 56.01627 | 173.74307 | 30786 ft | 513 kts | 48° |
| 2026-05-07 13:27 | 56.06793 | 173.83103 | 30788 ft | 513 kts | 48° |
| 2026-05-07 13:28 | 56.11949 | 173.91917 | 30789 ft | 513 kts | 48° |
| 2026-05-07 13:28 | 56.17070 | 174.00704 | 30787 ft | 513 kts | 48° |
| 2026-05-07 13:29 | 56.22217 | 174.09571 | 30786 ft | 513 kts | 48° |
| 2026-05-07 13:29 | 56.27354 | 174.18455 | 30787 ft | 513 kts | 48° |
| 2026-05-07 13:30 | 56.32486 | 174.27366 | 30789 ft | 513 kts | 48° |
| 2026-05-07 13:30 | 56.37581 | 174.36246 | 30787 ft | 512 kts | 49° |
| 2026-05-07 13:31 | 56.42685 | 174.45179 | 30786 ft | 511 kts | 50° |
| 2026-05-07 13:31 | 56.47782 | 174.54133 | 30787 ft | 511 kts | 50° |
| 2026-05-07 13:32 | 56.52877 | 174.63121 | 30788 ft | 511 kts | 50° |
| 2026-05-07 13:32 | 56.57964 | 174.72128 | 30788 ft | 511 kts | 50° |
| 2026-05-07 13:33 | 56.63004 | 174.81089 | 30786 ft | 511 kts | 50° |
| 2026-05-07 13:33 | 56.68079 | 174.90148 | 30786 ft | 511 kts | 50° |
| 2026-05-07 13:34 | 56.75672 | 175.03768 | 30789 ft | 511 kts | 50° |
| 2026-05-07 13:35 | 56.80723 | 175.12875 | 30787 ft | 511 kts | 50° |
| 2026-05-07 13:35 | 56.85740 | 175.21956 | 30786 ft | 511 kts | 50° |
| 2026-05-07 13:36 | 56.90778 | 175.31113 | 30787 ft | 511 kts | 50° |
| 2026-05-07 13:36 | 56.95807 | 175.40288 | 30788 ft | 511 kts | 50° |
| 2026-05-07 13:37 | 57.00839 | 175.49506 | 30788 ft | 511 kts | 50° |
| 2026-05-07 13:37 | 57.05820 | 175.58670 | 30786 ft | 511 kts | 50° |
| 2026-05-07 13:38 | 57.10831 | 175.67925 | 30787 ft | 511 kts | 51° |
| 2026-05-07 13:38 | 57.15818 | 175.77173 | 30871 ft | 508 kts | 53° |
| 2026-05-07 13:39 | 57.20770 | 175.86393 | 30874 ft | 504 kts | 53° |
| 2026-05-07 13:39 | 57.25691 | 175.95593 | 30877 ft | 503 kts | 53° |
| 2026-05-07 13:40 | 57.30634 | 176.04757 | 30877 ft | 504 kts | 53° |
| 2026-05-07 13:40 | 57.35523 | 176.13951 | 30875 ft | 504 kts | 53° |
| 2026-05-07 13:41 | 57.40411 | 176.23261 | 30875 ft | 504 kts | 54° |
| 2026-05-07 13:41 | 57.45295 | 176.32590 | 30877 ft | 503 kts | 54° |
| 2026-05-07 13:42 | 57.50174 | 176.41920 | 30876 ft | 503 kts | 54° |
| 2026-05-07 13:42 | 57.55058 | 176.51142 | 30875 ft | 504 kts | 53° |
| 2026-05-07 13:43 | 57.59980 | 176.60438 | 30876 ft | 504 kts | 53° |
| 2026-05-07 13:43 | 57.64889 | 176.69784 | 30877 ft | 504 kts | 53° |
| 2026-05-07 13:44 | 57.69755 | 176.79098 | 30875 ft | 504 kts | 54° |
| 2026-05-07 13:44 | 57.74638 | 176.88479 | 30876 ft | 504 kts | 53° |
| 2026-05-07 13:45 | 57.79593 | 176.97779 | 30877 ft | 504 kts | 53° |
| 2026-05-07 13:45 | 57.84524 | 177.07148 | 30875 ft | 504 kts | 53° |
| 2026-05-07 13:46 | 57.89423 | 177.16566 | 30935 ft | 503 kts | 53° |
| 2026-05-07 13:46 | 57.94270 | 177.25944 | 30963 ft | 504 kts | 53° |
| 2026-05-07 13:47 | 57.99148 | 177.35428 | 30964 ft | 504 kts | 53° |
| 2026-05-07 13:47 | 58.04014 | 177.44931 | 30966 ft | 503 kts | 53° |
| 2026-05-07 13:48 | 58.08868 | 177.54451 | 30964 ft | 503 kts | 53° |
| 2026-05-07 13:48 | 58.13716 | 177.64000 | 30963 ft | 503 kts | 53° |
| 2026-05-07 13:49 | 58.18523 | 177.73509 | 30965 ft | 503 kts | 53° |
| 2026-05-07 13:49 | 58.23357 | 177.83111 | 30964 ft | 503 kts | 53° |
| 2026-05-07 13:50 | 58.28184 | 177.92739 | 30963 ft | 503 kts | 53° |
| 2026-05-07 13:50 | 58.32969 | 178.02323 | 30965 ft | 503 kts | 53° |
| 2026-05-07 13:51 | 58.37776 | 178.11993 | 30965 ft | 503 kts | 53° |
| 2026-05-07 13:51 | 58.42582 | 178.21702 | 30963 ft | 503 kts | 54° |
| 2026-05-07 13:52 | 58.47371 | 178.31418 | 30965 ft | 503 kts | 54° |
| 2026-05-07 13:52 | 58.52158 | 178.41171 | 30964 ft | 503 kts | 54° |
| 2026-05-07 13:53 | 58.56907 | 178.50887 | 30964 ft | 503 kts | 54° |
| 2026-05-07 13:53 | 58.61672 | 178.60679 | 30966 ft | 503 kts | 54° |
| 2026-05-07 13:53 | 58.64047 | 178.65579 | 31095 ft | 500 kts | 52° |
| 2026-05-07 13:54 | 58.66419 | 178.70476 | 31123 ft | 500 kts | 52° |
| 2026-05-07 13:54 | 58.71157 | 178.80296 | 31100 ft | 501 kts | 52° |
| 2026-05-07 13:55 | 58.75852 | 178.90068 | 31111 ft | 500 kts | 52° |
| 2026-05-07 13:55 | 58.80573 | 178.99937 | 31111 ft | 500 kts | 52° |
| 2026-05-07 13:56 | 58.85285 | 179.09831 | 31113 ft | 500 kts | 52° |
| 2026-05-07 13:56 | 58.89986 | 179.19743 | 31111 ft | 500 kts | 52° |
| 2026-05-07 13:57 | 58.94653 | 179.29626 | 31112 ft | 500 kts | 52° |
| 2026-05-07 13:57 | 58.99339 | 179.39594 | 31113 ft | 500 kts | 52° |
| 2026-05-07 13:58 | 59.04019 | 179.49591 | 31111 ft | 500 kts | 52° |
| 2026-05-07 13:58 | 59.08661 | 179.59550 | 31113 ft | 500 kts | 52° |
| 2026-05-07 13:59 | 59.13323 | 179.69597 | 31112 ft | 500 kts | 53° |
| 2026-05-07 13:59 | 59.17977 | 179.79669 | 31112 ft | 500 kts | 53° |
| 2026-05-07 14:00 | 59.22624 | 179.89771 | 31113 ft | 500 kts | 53° |
| 2026-05-07 14:00 | 59.27262 | 179.99900 | 31111 ft | 500 kts | 53° |
| 2026-05-07 14:01 | 59.31121 | -179.91640 | 31111 ft | 500 kts | 53° |
| 2026-05-07 14:01 | 59.35743 | -179.81458 | 31141 ft | 497 kts | 47° |
| 2026-05-07 14:01 | 59.37987 | -179.76506 | 31671 ft | 477 kts | 47° |
| 2026-05-07 14:02 | 59.40183 | -179.71648 | 31383 ft | 475 kts | 46° |
| 2026-05-07 14:02 | 59.44523 | -179.62012 | 31239 ft | 470 kts | 46° |
| 2026-05-07 14:03 | 59.48821 | -179.52430 | 31232 ft | 471 kts | 46° |
| 2026-05-07 14:03 | 59.53151 | -179.42734 | 31229 ft | 471 kts | 47° |
| 2026-05-07 14:04 | 59.57471 | -179.33020 | 31230 ft | 471 kts | 47° |
| 2026-05-07 14:04 | 59.61787 | -179.23274 | 31230 ft | 471 kts | 47° |
| 2026-05-07 14:05 | 59.66061 | -179.13583 | 31230 ft | 471 kts | 47° |
| 2026-05-07 14:05 | 59.70367 | -179.03775 | 31231 ft | 471 kts | 47° |
| 2026-05-07 14:06 | 59.74660 | -178.93958 | 31229 ft | 471 kts | 47° |
| 2026-05-07 14:06 | 59.78946 | -178.84112 | 31231 ft | 471 kts | 47° |
| 2026-05-07 14:07 | 59.83197 | -178.74307 | 31229 ft | 471 kts | 47° |
| 2026-05-07 14:07 | 59.87467 | -178.64416 | 31231 ft | 471 kts | 47° |
| 2026-05-07 14:08 | 59.91733 | -178.54491 | 31230 ft | 472 kts | 47° |
| 2026-05-07 14:08 | 59.95992 | -178.44539 | 31231 ft | 472 kts | 47° |
| 2026-05-07 14:09 | 60.00265 | -178.34594 | 31230 ft | 471 kts | 47° |
| 2026-05-07 14:09 | 60.04509 | -178.24718 | 31230 ft | 472 kts | 48° |
| 2026-05-07 14:10 | 60.08739 | -178.14633 | 31246 ft | 476 kts | 52° |
| 2026-05-07 14:10 | 60.13015 | -178.04388 | 31257 ft | 483 kts | 52° |
| 2026-05-07 14:11 | 60.17359 | -177.93990 | 31258 ft | 489 kts | 51° |
| 2026-05-07 14:11 | 60.22181 | -177.84348 | 31258 ft | 496 kts | 44° |
| 2026-05-07 14:12 | 60.27482 | -177.75347 | 31261 ft | 501 kts | 41° |
| 2026-05-07 14:12 | 60.32923 | -177.66526 | 31259 ft | 501 kts | 41° |
| 2026-05-07 14:13 | 60.38309 | -177.57610 | 31261 ft | 500 kts | 41° |
| 2026-05-07 14:13 | 60.43630 | -177.48680 | 31259 ft | 500 kts | 42° |
| 2026-05-07 14:14 | 60.49038 | -177.39657 | 31261 ft | 500 kts | 41° |
| 2026-05-07 14:14 | 60.54442 | -177.30727 | 31259 ft | 500 kts | 41° |
| 2026-05-07 14:15 | 60.59774 | -177.21773 | 31261 ft | 500 kts | 42° |
| 2026-05-07 14:15 | 60.65123 | -177.12706 | 31259 ft | 500 kts | 42° |
| 2026-05-07 14:16 | 60.70463 | -177.03599 | 31261 ft | 500 kts | 42° |
| 2026-05-07 14:16 | 60.75794 | -176.94461 | 31259 ft | 500 kts | 42° |
| 2026-05-07 14:17 | 60.81081 | -176.85355 | 31260 ft | 500 kts | 42° |
| 2026-05-07 14:17 | 60.86403 | -176.76148 | 31259 ft | 500 kts | 42° |
| 2026-05-07 14:18 | 60.91702 | -176.66939 | 31260 ft | 497 kts | 42° |
| 2026-05-07 14:18 | 60.96953 | -176.57772 | 31259 ft | 494 kts | 43° |
| 2026-05-07 14:19 | 61.02195 | -176.48581 | 31260 ft | 495 kts | 43° |
| 2026-05-07 14:19 | 61.07398 | -176.39415 | 31259 ft | 495 kts | 43° |
| 2026-05-07 14:20 | 61.12634 | -176.30151 | 31260 ft | 495 kts | 43° |
| 2026-05-07 14:20 | 61.17861 | -176.20860 | 31259 ft | 495 kts | 43° |
| 2026-05-07 14:21 | 61.23084 | -176.11534 | 31260 ft | 495 kts | 43° |
| 2026-05-07 14:21 | 61.28263 | -176.02246 | 31259 ft | 495 kts | 43° |
| 2026-05-07 14:22 | 61.33469 | -175.92865 | 31260 ft | 495 kts | 43° |
| 2026-05-07 14:22 | 61.38668 | -175.83455 | 31259 ft | 495 kts | 43° |
| 2026-05-07 14:23 | 61.43865 | -175.74006 | 31260 ft | 495 kts | 43° |
| 2026-05-07 14:23 | 61.49017 | -175.64594 | 31260 ft | 495 kts | 43° |
| 2026-05-07 14:24 | 61.54199 | -175.55084 | 31260 ft | 495 kts | 43° |
| 2026-05-07 14:24 | 61.59372 | -175.45548 | 31260 ft | 495 kts | 43° |
| 2026-05-07 14:25 | 61.64540 | -175.35976 | 31260 ft | 495 kts | 44° |
| 2026-05-07 14:25 | 61.69666 | -175.26437 | 31261 ft | 495 kts | 43° |
| 2026-05-07 14:26 | 61.74788 | -175.16863 | 31260 ft | 489 kts | 42° |
| 2026-05-07 14:26 | 61.79854 | -175.07348 | 31259 ft | 486 kts | 42° |
| 2026-05-07 14:27 | 61.84901 | -174.97827 | 31260 ft | 487 kts | 42° |
| 2026-05-07 14:27 | 61.89921 | -174.88312 | 31260 ft | 487 kts | 42° |
| 2026-05-07 14:28 | 61.94968 | -174.78702 | 31259 ft | 487 kts | 42° |
| 2026-05-07 14:28 | 62.00005 | -174.69068 | 31260 ft | 487 kts | 42° |
| 2026-05-07 14:29 | 62.05038 | -174.59396 | 31259 ft | 487 kts | 43° |
| 2026-05-07 14:29 | 62.10027 | -174.49762 | 31260 ft | 487 kts | 43° |
| 2026-05-07 14:30 | 62.15046 | -174.40028 | 31259 ft | 487 kts | 43° |
| 2026-05-07 14:30 | 62.20058 | -174.30259 | 31260 ft | 487 kts | 43° |
| 2026-05-07 14:31 | 62.25062 | -174.20462 | 31259 ft | 487 kts | 43° |
| 2026-05-07 14:31 | 62.30028 | -174.10692 | 31261 ft | 487 kts | 43° |
| 2026-05-07 14:32 | 62.35018 | -174.00830 | 31259 ft | 487 kts | 43° |
| 2026-05-07 14:32 | 62.40002 | -173.90932 | 31260 ft | 487 kts | 43° |
| 2026-05-07 14:33 | 62.44977 | -173.81006 | 31259 ft | 487 kts | 43° |
| 2026-05-07 14:33 | 62.49949 | -173.71037 | 31260 ft | 487 kts | 43° |
| 2026-05-07 14:34 | 62.54834 | -173.61198 | 31253 ft | 479 kts | 41° |
| 2026-05-07 14:34 | 62.59685 | -173.51380 | 31251 ft | 476 kts | 41° |
| 2026-05-07 14:35 | 62.64520 | -173.41550 | 31254 ft | 477 kts | 41° |
| 2026-05-07 14:35 | 62.69360 | -173.31664 | 31252 ft | 477 kts | 41° |
| 2026-05-07 14:36 | 62.74162 | -173.21808 | 31255 ft | 477 kts | 41° |
| 2026-05-07 14:36 | 62.78989 | -173.11853 | 31254 ft | 477 kts | 41° |
| 2026-05-07 14:37 | 62.83806 | -173.01874 | 31256 ft | 477 kts | 41° |
| 2026-05-07 14:37 | 62.90992 | -172.86895 | 31257 ft | 477 kts | 41° |
| 2026-05-07 14:38 | 62.95793 | -172.76830 | 31256 ft | 477 kts | 42° |
| 2026-05-07 14:38 | 63.00588 | -172.66728 | 31259 ft | 477 kts | 42° |
| 2026-05-07 14:39 | 63.05374 | -172.56598 | 31258 ft | 477 kts | 42° |
| 2026-05-07 14:39 | 63.10159 | -172.46421 | 31261 ft | 477 kts | 42° |
| 2026-05-07 14:40 | 63.14905 | -172.36277 | 31261 ft | 477 kts | 42° |
| 2026-05-07 14:40 | 63.19672 | -172.26040 | 31263 ft | 477 kts | 42° |
| 2026-05-07 14:41 | 63.24431 | -172.15769 | 31264 ft | 478 kts | 42° |
| 2026-05-07 14:41 | 63.28763 | -172.06377 | 31266 ft | 477 kts | 42° |
| 2026-05-07 14:42 | 63.33477 | -171.96108 | 31264 ft | 472 kts | 41° |
| 2026-05-07 14:42 | 63.38116 | -171.85958 | 31261 ft | 470 kts | 41° |
| 2026-05-07 14:43 | 63.42774 | -171.75715 | 31263 ft | 470 kts | 41° |
| 2026-05-07 14:43 | 63.47430 | -171.65426 | 31262 ft | 471 kts | 41° |
| 2026-05-07 14:44 | 63.52074 | -171.55113 | 31264 ft | 471 kts | 41° |
| 2026-05-07 14:44 | 63.56685 | -171.44825 | 31263 ft | 471 kts | 41° |
| 2026-05-07 14:45 | 63.61321 | -171.34430 | 31266 ft | 471 kts | 41° |
| 2026-05-07 14:45 | 63.65946 | -171.24009 | 31267 ft | 471 kts | 41° |
| 2026-05-07 14:46 | 63.70568 | -171.13544 | 31270 ft | 471 kts | 41° |
| 2026-05-07 14:46 | 63.75136 | -171.03151 | 31274 ft | 471 kts | 41° |
| 2026-05-07 14:47 | 63.79747 | -170.92608 | 31277 ft | 471 kts | 41° |
| 2026-05-07 14:47 | 63.84347 | -170.82039 | 31280 ft | 471 kts | 41° |
| 2026-05-07 14:48 | 63.88944 | -170.71423 | 31280 ft | 472 kts | 41° |
| 2026-05-07 14:48 | 63.93502 | -170.60846 | 31281 ft | 472 kts | 42° |
| 2026-05-07 14:49 | 63.98084 | -170.50159 | 31279 ft | 472 kts | 42° |
| 2026-05-07 14:49 | 64.02659 | -170.39436 | 31279 ft | 472 kts | 42° |
| 2026-05-07 14:50 | 64.07232 | -170.28666 | 31271 ft | 472 kts | 42° |
| 2026-05-07 14:50 | 64.11764 | -170.17934 | 31270 ft | 473 kts | 43° |
| 2026-05-07 14:51 | 64.16328 | -170.07077 | 31268 ft | 473 kts | 43° |
| 2026-05-07 14:51 | 64.20880 | -169.96190 | 31267 ft | 473 kts | 43° |
| 2026-05-07 14:52 | 64.25435 | -169.85241 | 31266 ft | 473 kts | 43° |
| 2026-05-07 14:52 | 64.29977 | -169.74268 | 31273 ft | 473 kts | 43° |
| 2026-05-07 14:53 | 64.34470 | -169.63359 | 31276 ft | 472 kts | 43° |
| 2026-05-07 14:53 | 64.38974 | -169.52364 | 31276 ft | 471 kts | 43° |
| 2026-05-07 14:54 | 64.43474 | -169.41326 | 31277 ft | 471 kts | 43° |
| 2026-05-07 14:54 | 64.47962 | -169.30261 | 31277 ft | 471 kts | 43° |
| 2026-05-07 14:55 | 64.52434 | -169.19177 | 31278 ft | 470 kts | 42° |
| 2026-05-07 14:55 | 64.56865 | -169.08140 | 31276 ft | 470 kts | 43° |
| 2026-05-07 14:56 | 64.61313 | -168.97002 | 31277 ft | 470 kts | 43° |
| 2026-05-07 14:56 | 64.65753 | -168.85827 | 31275 ft | 469 kts | 43° |
| 2026-05-07 14:57 | 64.69433 | -168.76519 | 31276 ft | 469 kts | 43° |
| 2026-05-07 14:57 | 64.73854 | -168.65287 | 31276 ft | 469 kts | 43° |
| 2026-05-07 14:58 | 64.79028 | -168.52284 | 31275 ft | 469 kts | 42° |
| 2026-05-07 14:58 | 64.82727 | -168.42846 | 31211 ft | 468 kts | 42° |
| 2026-05-07 14:59 | 64.87033 | -168.31625 | 31194 ft | 464 kts | 42° |
| 2026-05-07 14:59 | 64.91352 | -168.20323 | 31187 ft | 465 kts | 42° |
| 2026-05-07 15:00 | 64.95812 | -168.09364 | 31194 ft | 459 kts | 34° |
| 2026-05-07 15:00 | 65.01211 | -168.01607 | 31228 ft | 453 kts | 21° |
| 2026-05-07 15:01 | 65.04110 | -167.98721 | 31429 ft | 451 kts | 18° |
| 2026-05-07 15:01 | 65.07009 | -167.96205 | 31701 ft | 449 kts | 17° |
| 2026-05-07 15:01 | 65.09961 | -167.93841 | 31934 ft | 448 kts | 15° |
| 2026-05-07 15:01 | 65.12915 | -167.91525 | 32143 ft | 447 kts | 16° |
| 2026-05-07 15:02 | 65.15863 | -167.89183 | 32382 ft | 446 kts | 16° |
| 2026-05-07 15:02 | 65.18806 | -167.86814 | 32624 ft | 445 kts | 16° |
| 2026-05-07 15:02 | 65.21736 | -167.84432 | 32865 ft | 444 kts | 16° |
| 2026-05-07 15:02 | 65.24651 | -167.82047 | 33140 ft | 442 kts | 16° |
| 2026-05-07 15:03 | 65.30472 | -167.77254 | 33187 ft | 441 kts | 16° |
| 2026-05-07 15:03 | 65.36236 | -167.72610 | 33182 ft | 440 kts | 16° |
| 2026-05-07 15:04 | 65.42040 | -167.67870 | 33180 ft | 441 kts | 16° |
| 2026-05-07 15:04 | 65.47843 | -167.63072 | 33177 ft | 441 kts | 16° |
| 2026-05-07 15:05 | 65.53642 | -167.58240 | 33177 ft | 441 kts | 17° |
| 2026-05-07 15:05 | 65.59402 | -167.53411 | 33178 ft | 441 kts | 17° |
| 2026-05-07 15:06 | 65.65204 | -167.48521 | 33178 ft | 441 kts | 17° |
| 2026-05-07 15:06 | 65.70999 | -167.43613 | 33182 ft | 441 kts | 17° |
| 2026-05-07 15:07 | 65.76796 | -167.38679 | 33185 ft | 441 kts | 17° |
| 2026-05-07 15:07 | 65.82553 | -167.33756 | 33178 ft | 441 kts | 17° |
| 2026-05-07 15:08 | 65.88341 | -167.28782 | 33188 ft | 441 kts | 17° |
| 2026-05-07 15:08 | 65.94127 | -167.23787 | 33200 ft | 441 kts | 17° |
| 2026-05-07 15:09 | 65.99910 | -167.18770 | 33210 ft | 440 kts | 17° |
| 2026-05-07 15:09 | 66.05642 | -167.13773 | 33224 ft | 440 kts | 17° |
| 2026-05-07 15:10 | 66.11409 | -167.08721 | 33234 ft | 440 kts | 17° |
| 2026-05-07 15:10 | 66.17172 | -167.03649 | 33244 ft | 439 kts | 17° |
| 2026-05-07 15:11 | 66.22925 | -166.98561 | 33253 ft | 439 kts | 17° |
| 2026-05-07 15:11 | 66.28678 | -166.93447 | 33258 ft | 439 kts | 17° |
| 2026-05-07 15:12 | 66.34385 | -166.88351 | 33264 ft | 439 kts | 17° |
| 2026-05-07 15:12 | 66.40130 | -166.83196 | 33266 ft | 439 kts | 17° |
| 2026-05-07 15:13 | 66.45869 | -166.78020 | 33266 ft | 439 kts | 17° |
| 2026-05-07 15:13 | 66.51572 | -166.72852 | 33268 ft | 439 kts | 17° |
| 2026-05-07 15:14 | 66.57309 | -166.67627 | 33267 ft | 439 kts | 17° |
| 2026-05-07 15:14 | 66.63053 | -166.62370 | 33261 ft | 439 kts | 17° |
| 2026-05-07 15:15 | 66.68792 | -166.57092 | 33254 ft | 439 kts | 18° |
| 2026-05-07 15:15 | 66.74538 | -166.51781 | 33250 ft | 440 kts | 18° |
| 2026-05-07 15:16 | 66.79820 | -166.46876 | 33243 ft | 440 kts | 18° |
| 2026-05-07 15:16 | 66.85160 | -166.41893 | 33268 ft | 441 kts | 18° |
| 2026-05-07 15:17 | 66.90928 | -166.36486 | 33261 ft | 442 kts | 18° |
| 2026-05-07 15:17 | 66.96644 | -166.31100 | 33257 ft | 443 kts | 18° |
| 2026-05-07 15:18 | 67.02487 | -166.25566 | 33253 ft | 444 kts | 18° |
| 2026-05-07 15:18 | 67.08246 | -166.20084 | 33246 ft | 445 kts | 18° |
| 2026-05-07 15:19 | 67.14047 | -166.14534 | 33241 ft | 446 kts | 18° |
| 2026-05-07 15:19 | 67.19865 | -166.08939 | 33237 ft | 446 kts | 18° |
| 2026-05-07 15:20 | 67.25686 | -166.03312 | 33230 ft | 447 kts | 19° |
| 2026-05-07 15:20 | 67.31477 | -165.97684 | 33227 ft | 448 kts | 19° |
| 2026-05-07 15:21 | 67.37319 | -165.91978 | 33221 ft | 449 kts | 19° |
| 2026-05-07 15:21 | 67.43164 | -165.86239 | 33217 ft | 450 kts | 19° |
| 2026-05-07 15:22 | 67.49023 | -165.80456 | 33216 ft | 450 kts | 19° |
| 2026-05-07 15:22 | 67.54845 | -165.74679 | 33217 ft | 450 kts | 19° |
| 2026-05-07 15:23 | 67.60701 | -165.68837 | 33214 ft | 450 kts | 19° |
| 2026-05-07 15:23 | 67.66556 | -165.62965 | 33214 ft | 451 kts | 19° |
| 2026-05-07 15:24 | 67.72409 | -165.57064 | 33212 ft | 451 kts | 19° |
| 2026-05-07 15:24 | 67.78273 | -165.51120 | 33211 ft | 451 kts | 19° |
| 2026-05-07 15:25 | 67.84086 | -165.45196 | 33233 ft | 450 kts | 19° |
| 2026-05-07 15:25 | 67.89914 | -165.39224 | 33236 ft | 448 kts | 19° |
| 2026-05-07 15:26 | 67.95733 | -165.33230 | 33238 ft | 448 kts | 19° |
| 2026-05-07 15:26 | 68.01547 | -165.27209 | 33243 ft | 448 kts | 19° |
| 2026-05-07 15:27 | 68.07327 | -165.21190 | 33246 ft | 448 kts | 19° |
| 2026-05-07 15:27 | 68.13132 | -165.15113 | 33250 ft | 448 kts | 19° |
| 2026-05-07 15:28 | 68.18936 | -165.09003 | 33255 ft | 448 kts | 19° |
| 2026-05-07 15:28 | 68.24733 | -165.02868 | 33256 ft | 448 kts | 19° |
| 2026-05-07 15:29 | 68.30482 | -164.96750 | 33261 ft | 447 kts | 20° |
| 2026-05-07 15:29 | 68.36261 | -164.90566 | 33267 ft | 446 kts | 20° |
| 2026-05-07 15:30 | 68.42032 | -164.84358 | 33269 ft | 446 kts | 20° |
| 2026-05-07 15:30 | 68.47791 | -164.78128 | 33275 ft | 446 kts | 20° |
| 2026-05-07 15:31 | 68.53515 | -164.71902 | 33278 ft | 445 kts | 20° |
| 2026-05-07 15:31 | 68.59263 | -164.65615 | 33279 ft | 445 kts | 20° |
| 2026-05-07 15:32 | 68.65017 | -164.59288 | 33283 ft | 445 kts | 20° |
| 2026-05-07 15:32 | 68.70756 | -164.52940 | 33284 ft | 445 kts | 20° |
| 2026-05-07 15:33 | 68.76494 | -164.46559 | 33285 ft | 445 kts | 20° |
| 2026-05-07 15:33 | 68.82196 | -164.40184 | 33290 ft | 444 kts | 20° |
| 2026-05-07 15:34 | 68.87943 | -164.33720 | 33283 ft | 449 kts | 20° |
| 2026-05-07 15:34 | 68.93753 | -164.27150 | 33282 ft | 453 kts | 20° |
| 2026-05-07 15:35 | 68.99554 | -164.20552 | 33279 ft | 454 kts | 20° |
| 2026-05-07 15:35 | 69.05440 | -164.13820 | 33279 ft | 454 kts | 20° |
| 2026-05-07 15:36 | 69.11254 | -164.07130 | 33276 ft | 456 kts | 21° |
| 2026-05-07 15:36 | 69.17133 | -164.00327 | 33274 ft | 458 kts | 21° |
| 2026-05-07 15:37 | 69.23028 | -163.93464 | 33274 ft | 460 kts | 21° |
| 2026-05-07 15:37 | 69.28947 | -163.86534 | 33269 ft | 462 kts | 21° |
| 2026-05-07 15:38 | 69.34893 | -163.79529 | 33268 ft | 463 kts | 21° |
| 2026-05-07 15:38 | 69.40811 | -163.72517 | 33267 ft | 465 kts | 21° |
| 2026-05-07 15:39 | 69.46788 | -163.65391 | 33264 ft | 467 kts | 21° |
| 2026-05-07 15:39 | 69.52784 | -163.58200 | 33264 ft | 468 kts | 22° |
| 2026-05-07 15:40 | 69.58790 | -163.50952 | 33262 ft | 469 kts | 22° |
| 2026-05-07 15:40 | 69.64758 | -163.43707 | 33260 ft | 469 kts | 22° |
| 2026-05-07 15:41 | 69.70773 | -163.36367 | 33262 ft | 470 kts | 22° |
| 2026-05-07 15:41 | 69.76807 | -163.29108 | 33260 ft | 470 kts | 22° |
| 2026-05-07 15:42 | 69.82815 | -163.21647 | 33260 ft | 470 kts | 23° |
| 2026-05-07 15:42 | 69.88715 | -163.14243 | 33267 ft | 460 kts | 22° |
| 2026-05-07 15:43 | 69.94545 | -163.06895 | 33266 ft | 454 kts | 22° |
| 2026-05-07 15:43 | 70.00354 | -162.99680 | 33259 ft | 454 kts | 20° |
| 2026-05-07 15:44 | 70.06356 | -162.93709 | 33258 ft | 457 kts | 17° |
| 2026-05-07 15:44 | 70.12422 | -162.88441 | 33253 ft | 459 kts | 17° |
| 2026-05-07 15:45 | 70.18552 | -162.83008 | 33245 ft | 461 kts | 17° |
| 2026-05-07 15:45 | 70.24690 | -162.77408 | 33240 ft | 463 kts | 17° |
| 2026-05-07 15:46 | 70.33917 | -162.68859 | 33228 ft | 467 kts | 17° |
| 2026-05-07 15:47 | 70.40152 | -162.63230 | 33223 ft | 469 kts | 17° |
| 2026-05-07 15:47 | 70.46404 | -162.57472 | 33216 ft | 472 kts | 18° |
| 2026-05-07 15:48 | 70.52681 | -162.51602 | 33211 ft | 474 kts | 18° |
| 2026-05-07 15:48 | 70.58982 | -162.45652 | 33207 ft | 475 kts | 18° |
| 2026-05-07 15:49 | 70.65258 | -162.39678 | 33202 ft | 477 kts | 18° |
| 2026-05-07 15:49 | 70.71593 | -162.33606 | 33200 ft | 478 kts | 18° |
| 2026-05-07 15:50 | 70.77935 | -162.27485 | 33197 ft | 479 kts | 18° |
| 2026-05-07 15:50 | 70.84293 | -162.21307 | 33194 ft | 480 kts | 18° |
| 2026-05-07 15:51 | 70.90606 | -162.15131 | 33169 ft | 479 kts | 18° |
| 2026-05-07 15:51 | 70.96945 | -162.08888 | 33164 ft | 478 kts | 18° |
| 2026-05-07 15:52 | 71.03281 | -162.02606 | 33165 ft | 479 kts | 18° |
| 2026-05-07 15:52 | 71.09627 | -161.96272 | 33163 ft | 479 kts | 18° |
| 2026-05-07 15:53 | 71.15966 | -161.89900 | 33162 ft | 480 kts | 18° |
| 2026-05-07 15:53 | 71.22272 | -161.83520 | 33163 ft | 480 kts | 18° |
| 2026-05-07 15:54 | 71.28614 | -161.77058 | 33162 ft | 480 kts | 18° |
| 2026-05-07 15:54 | 71.34961 | -161.70546 | 33148 ft | 480 kts | 19° |
| 2026-05-07 15:55 | 71.41305 | -161.63993 | 33146 ft | 480 kts | 19° |
| 2026-05-07 15:55 | 71.47601 | -161.57444 | 33146 ft | 479 kts | 19° |
| 2026-05-07 15:56 | 71.53926 | -161.50819 | 33147 ft | 479 kts | 19° |
| 2026-05-07 15:56 | 71.60251 | -161.44147 | 33145 ft | 479 kts | 19° |
| 2026-05-07 15:57 | 71.66562 | -161.37444 | 33146 ft | 478 kts | 19° |
| 2026-05-07 15:57 | 71.72867 | -161.30700 | 33147 ft | 478 kts | 19° |
| 2026-05-07 15:58 | 71.79171 | -161.23909 | 33145 ft | 478 kts | 19° |
| 2026-05-07 15:58 | 71.85458 | -161.17088 | 33147 ft | 477 kts | 19° |
| 2026-05-07 15:59 | 71.91741 | -161.10224 | 33108 ft | 477 kts | 19° |
| 2026-05-07 15:59 | 71.97953 | -161.03389 | 33092 ft | 474 kts | 19° |
| 2026-05-07 16:00 | 72.04188 | -160.96479 | 33091 ft | 474 kts | 19° |
| 2026-05-07 16:00 | 72.10420 | -160.89524 | 33091 ft | 474 kts | 19° |
| 2026-05-07 16:01 | 72.16661 | -160.82510 | 33093 ft | 474 kts | 19° |
| 2026-05-07 16:01 | 72.22843 | -160.75510 | 33091 ft | 474 kts | 19° |
| 2026-05-07 16:02 | 72.29064 | -160.68417 | 33093 ft | 473 kts | 19° |
| 2026-05-07 16:02 | 72.35283 | -160.61275 | 33093 ft | 473 kts | 19° |
| 2026-05-07 16:03 | 72.41497 | -160.54087 | 33092 ft | 473 kts | 19° |
| 2026-05-07 16:03 | 72.47750 | -160.46801 | 33094 ft | 473 kts | 19° |
| 2026-05-07 16:04 | 72.53953 | -160.39520 | 33093 ft | 473 kts | 20° |
| 2026-05-07 16:04 | 72.60153 | -160.32189 | 33094 ft | 473 kts | 20° |
| 2026-05-07 16:05 | 72.66343 | -160.24816 | 33095 ft | 473 kts | 20° |
| 2026-05-07 16:05 | 72.72495 | -160.17433 | 33093 ft | 472 kts | 20° |
| 2026-05-07 16:06 | 72.78682 | -160.09955 | 33095 ft | 472 kts | 20° |
| 2026-05-07 16:06 | 72.84868 | -160.02421 | 33095 ft | 472 kts | 20° |
| 2026-05-07 16:07 | 72.91051 | -159.94835 | 33094 ft | 472 kts | 20° |
| 2026-05-07 16:07 | 72.97178 | -159.87262 | 33152 ft | 472 kts | 20° |
| 2026-05-07 16:08 | 73.03351 | -159.79575 | 33157 ft | 472 kts | 20° |
| 2026-05-07 16:08 | 73.09514 | -159.71841 | 33157 ft | 472 kts | 20° |
| 2026-05-07 16:09 | 73.15680 | -159.64047 | 33124 ft | 473 kts | 20° |
| 2026-05-07 16:09 | 73.21827 | -159.56215 | 33119 ft | 475 kts | 20° |
| 2026-05-07 16:10 | 73.28017 | -159.48270 | 33117 ft | 475 kts | 20° |
| 2026-05-07 16:10 | 73.34207 | -159.40263 | 33118 ft | 474 kts | 20° |
| 2026-05-07 16:11 | 73.40393 | -159.32200 | 33119 ft | 474 kts | 20° |
| 2026-05-07 16:11 | 73.46574 | -159.24079 | 33118 ft | 474 kts | 20° |
| 2026-05-07 16:12 | 73.52750 | -159.15903 | 33120 ft | 474 kts | 20° |
| 2026-05-07 16:12 | 73.58883 | -159.07719 | 33119 ft | 474 kts | 21° |
| 2026-05-07 16:13 | 73.65056 | -158.99418 | 33119 ft | 474 kts | 21° |
| 2026-05-07 16:13 | 73.71221 | -158.91062 | 33121 ft | 474 kts | 21° |
| 2026-05-07 16:14 | 73.77383 | -158.82643 | 33119 ft | 474 kts | 21° |
| 2026-05-07 16:14 | 73.83534 | -158.74174 | 33121 ft | 474 kts | 21° |
| 2026-05-07 16:15 | 73.89664 | -158.65666 | 33121 ft | 474 kts | 21° |
| 2026-05-07 16:15 | 73.95816 | -158.57056 | 33220 ft | 473 kts | 20° |
| 2026-05-07 16:16 | 74.01929 | -158.48437 | 33258 ft | 470 kts | 20° |
| 2026-05-07 16:16 | 74.08017 | -158.39782 | 33260 ft | 470 kts | 20° |
| 2026-05-07 16:17 | 74.14108 | -158.31053 | 33260 ft | 470 kts | 20° |
| 2026-05-07 16:17 | 74.20192 | -158.22263 | 33259 ft | 470 kts | 20° |
| 2026-05-07 16:18 | 74.26240 | -158.13455 | 33261 ft | 470 kts | 20° |
| 2026-05-07 16:18 | 74.32324 | -158.04521 | 33259 ft | 470 kts | 20° |
| 2026-05-07 16:19 | 74.38400 | -157.95528 | 33260 ft | 470 kts | 20° |
| 2026-05-07 16:19 | 74.44479 | -157.86455 | 33260 ft | 471 kts | 20° |
| 2026-05-07 16:20 | 74.50510 | -157.77380 | 33259 ft | 471 kts | 20° |
| 2026-05-07 16:20 | 74.56578 | -157.68174 | 33260 ft | 471 kts | 21° |
| 2026-05-07 16:21 | 74.62645 | -157.58892 | 33259 ft | 471 kts | 21° |
| 2026-05-07 16:21 | 74.68709 | -157.49538 | 33259 ft | 471 kts | 21° |
| 2026-05-07 16:22 | 74.74790 | -157.40320 | 33261 ft | 471 kts | 20° |
| 2026-05-07 16:22 | 74.80852 | -157.30845 | 33259 ft | 471 kts | 21° |
| 2026-05-07 16:23 | 74.86853 | -157.21237 | 33260 ft | 471 kts | 21° |
| 2026-05-07 16:23 | 74.92896 | -157.11499 | 33260 ft | 471 kts | 21° |
| 2026-05-07 16:24 | 74.98965 | -157.01688 | 33260 ft | 477 kts | 21° |
| 2026-05-07 16:24 | 75.05024 | -156.90807 | 33258 ft | 484 kts | 25° |
| 2026-05-07 16:25 | 75.10949 | -156.78589 | 33260 ft | 486 kts | 27° |
| 2026-05-07 16:25 | 75.16889 | -156.66068 | 33260 ft | 485 kts | 26° |
| 2026-05-07 16:26 | 75.22834 | -156.53610 | 33259 ft | 485 kts | 26° |
| 2026-05-07 16:26 | 75.28772 | -156.41109 | 33261 ft | 485 kts | 26° |
| 2026-05-07 16:27 | 75.34755 | -156.28818 | 33259 ft | 485 kts | 25° |
| 2026-05-07 16:27 | 75.40728 | -156.16778 | 33259 ft | 485 kts | 26° |
| 2026-05-07 16:28 | 75.46703 | -156.04361 | 33260 ft | 485 kts | 26° |
| 2026-05-07 16:28 | 75.52656 | -155.91754 | 33259 ft | 485 kts | 26° |
| 2026-05-07 16:29 | 75.58607 | -155.78994 | 33260 ft | 485 kts | 26° |
| 2026-05-07 16:29 | 75.64550 | -155.66120 | 33259 ft | 485 kts | 26° |
| 2026-05-07 16:30 | 75.70483 | -155.53142 | 33259 ft | 485 kts | 27° |
| 2026-05-07 16:30 | 75.76369 | -155.40144 | 33261 ft | 485 kts | 27° |
| 2026-05-07 16:31 | 75.82289 | -155.26948 | 33259 ft | 485 kts | 27° |
| 2026-05-07 16:31 | 75.88207 | -155.13631 | 33260 ft | 485 kts | 27° |
| 2026-05-07 16:32 | 75.94117 | -155.00207 | 33259 ft | 490 kts | 27° |
| 2026-05-07 16:32 | 76.00132 | -154.86411 | 33260 ft | 496 kts | 27° |
| 2026-05-07 16:33 | 76.06165 | -154.72439 | 33259 ft | 497 kts | 27° |
| 2026-05-07 16:33 | 76.12185 | -154.58360 | 33260 ft | 496 kts | 28° |
| 2026-05-07 16:34 | 76.18155 | -154.44259 | 33259 ft | 496 kts | 28° |
| 2026-05-07 16:34 | 76.24158 | -154.29941 | 33259 ft | 496 kts | 28° |
| 2026-05-07 16:35 | 76.30150 | -154.15504 | 33261 ft | 496 kts | 28° |
| 2026-05-07 16:35 | 76.36137 | -154.00938 | 33259 ft | 497 kts | 28° |
| 2026-05-07 16:36 | 76.42114 | -153.86247 | 33260 ft | 497 kts | 28° |
| 2026-05-07 16:36 | 76.48050 | -153.71511 | 33260 ft | 497 kts | 28° |
| 2026-05-07 16:37 | 76.54011 | -153.56562 | 33259 ft | 497 kts | 28° |
| 2026-05-07 16:37 | 76.59969 | -153.41467 | 33261 ft | 497 kts | 29° |
| 2026-05-07 16:38 | 76.65951 | -153.26153 | 33259 ft | 497 kts | 29° |
| 2026-05-07 16:38 | 76.71893 | -153.10787 | 33260 ft | 497 kts | 29° |
| 2026-05-07 16:39 | 76.77785 | -152.95391 | 33260 ft | 497 kts | 29° |
| 2026-05-07 16:39 | 76.83704 | -152.79763 | 33259 ft | 497 kts | 29° |
| 2026-05-07 16:40 | 76.89189 | -152.65133 | 33260 ft | 502 kts | 30° |
| 2026-05-07 16:40 | 76.95185 | -152.48978 | 33259 ft | 507 kts | 30° |
| 2026-05-07 16:41 | 77.01205 | -152.32584 | 33259 ft | 507 kts | 30° |
| 2026-05-07 16:41 | 77.07167 | -152.16171 | 33261 ft | 507 kts | 30° |
| 2026-05-07 16:42 | 77.13150 | -151.99520 | 33259 ft | 507 kts | 30° |
| 2026-05-07 16:42 | 77.19124 | -151.82713 | 33260 ft | 507 kts | 31° |
| 2026-05-07 16:43 | 77.25092 | -151.65739 | 33260 ft | 507 kts | 31° |
| 2026-05-07 16:43 | 77.31005 | -151.48733 | 33259 ft | 507 kts | 31° |
| 2026-05-07 16:44 | 77.36953 | -151.31437 | 33261 ft | 507 kts | 31° |
| 2026-05-07 16:44 | 77.42891 | -151.13978 | 33259 ft | 507 kts | 31° |
| 2026-05-07 16:45 | 77.48817 | -150.96356 | 33260 ft | 507 kts | 31° |
| 2026-05-07 16:45 | 77.54729 | -150.78578 | 33260 ft | 507 kts | 32° |
| 2026-05-07 16:46 | 77.60635 | -150.60614 | 33259 ft | 507 kts | 32° |
| 2026-05-07 16:46 | 77.66526 | -150.42492 | 33261 ft | 507 kts | 32° |
| 2026-05-07 16:47 | 77.72368 | -150.24313 | 33260 ft | 507 kts | 32° |
| 2026-05-07 16:47 | 77.78247 | -150.05809 | 33090 ft | 511 kts | 32° |
| 2026-05-07 16:48 | 77.84176 | -149.86927 | 33108 ft | 515 kts | 33° |
| 2026-05-07 16:48 | 77.90112 | -149.67797 | 33065 ft | 516 kts | 33° |
| 2026-05-07 16:49 | 77.96035 | -149.48484 | 33081 ft | 515 kts | 33° |
| 2026-05-07 16:49 | 78.01903 | -149.29121 | 33083 ft | 515 kts | 33° |
| 2026-05-07 16:50 | 78.07800 | -149.09426 | 33082 ft | 515 kts | 33° |
| 2026-05-07 16:50 | 78.13681 | -148.89548 | 33082 ft | 515 kts | 34° |
| 2026-05-07 16:51 | 78.18560 | -148.72871 | 33083 ft | 516 kts | 34° |
| 2026-05-07 16:51 | 78.24417 | -148.52627 | 33083 ft | 516 kts | 34° |
| 2026-05-07 16:52 | 78.31209 | -148.28837 | 33083 ft | 516 kts | 34° |
| 2026-05-07 16:52 | 78.36095 | -148.11511 | 33083 ft | 516 kts | 34° |
| 2026-05-07 16:53 | 78.41909 | -147.90656 | 33082 ft | 516 kts | 34° |
| 2026-05-07 16:53 | 78.47711 | -147.69585 | 33083 ft | 516 kts | 35° |
| 2026-05-07 16:54 | 78.53463 | -147.48428 | 33082 ft | 516 kts | 35° |
| 2026-05-07 16:54 | 78.59236 | -147.26928 | 33083 ft | 516 kts | 35° |
| 2026-05-07 16:55 | 78.64994 | -147.05210 | 33094 ft | 516 kts | 36° |
| 2026-05-07 16:55 | 78.70742 | -146.83248 | 33219 ft | 519 kts | 36° |
| 2026-05-07 16:56 | 78.76529 | -146.60848 | 33230 ft | 522 kts | 36° |
| 2026-05-07 16:56 | 78.85139 | -146.26975 | 33229 ft | 521 kts | 37° |
| 2026-05-07 16:57 | 78.90879 | -146.04019 | 33231 ft | 521 kts | 37° |
| 2026-05-07 16:57 | 78.96599 | -145.80840 | 33230 ft | 521 kts | 37° |
| 2026-05-07 16:58 | 79.02307 | -145.57395 | 33231 ft | 521 kts | 37° |
| 2026-05-07 16:58 | 79.07953 | -145.33896 | 33230 ft | 521 kts | 38° |
| 2026-05-07 16:59 | 79.13629 | -145.09953 | 33230 ft | 521 kts | 38° |
| 2026-05-07 16:59 | 79.19280 | -144.85783 | 33230 ft | 522 kts | 38° |
| 2026-05-07 17:00 | 79.24912 | -144.61367 | 33231 ft | 522 kts | 38° |
| 2026-05-07 17:00 | 79.30526 | -144.36692 | 33230 ft | 522 kts | 38° |
| 2026-05-07 17:01 | 79.36125 | -144.11738 | 33231 ft | 522 kts | 39° |
| 2026-05-07 17:01 | 79.41707 | -143.86512 | 33229 ft | 522 kts | 39° |
| 2026-05-07 17:02 | 79.47260 | -143.61059 | 33231 ft | 522 kts | 39° |
| 2026-05-07 17:02 | 79.52769 | -143.35455 | 33118 ft | 523 kts | 39° |
| 2026-05-07 17:03 | 79.58306 | -143.09351 | 33083 ft | 525 kts | 40° |
| 2026-05-07 17:03 | 79.63837 | -142.82897 | 33083 ft | 525 kts | 40° |
| 2026-05-07 17:04 | 79.69349 | -142.56152 | 33082 ft | 525 kts | 40° |
| 2026-05-07 17:04 | 79.74836 | -142.29135 | 33083 ft | 525 kts | 40° |
| 2026-05-07 17:05 | 79.80347 | -142.02631 | 33085 ft | 525 kts | 39° |
| 2026-05-07 17:05 | 79.85842 | -141.75364 | 33082 ft | 525 kts | 42° |
| 2026-05-07 17:06 | 79.91180 | -141.46926 | 33083 ft | 525 kts | 42° |
| 2026-05-07 17:06 | 79.96535 | -141.18460 | 33083 ft | 526 kts | 42° |
| 2026-05-07 17:07 | 80.02098 | -140.91744 | 33083 ft | 525 kts | 36° |
| 2026-05-07 17:07 | 80.08078 | -140.67590 | 33083 ft | 524 kts | 33° |
| 2026-05-07 17:08 | 80.14135 | -140.43953 | 33082 ft | 524 kts | 33° |
| 2026-05-07 17:08 | 80.20136 | -140.19641 | 33083 ft | 524 kts | 34° |
| 2026-05-07 17:09 | 80.26049 | -139.94502 | 33082 ft | 524 kts | 36° |
| 2026-05-07 17:09 | 80.31933 | -139.69497 | 33081 ft | 524 kts | 32° |
| 2026-05-07 17:10 | 80.38153 | -139.46075 | 33032 ft | 527 kts | 31° |
| 2026-05-07 17:10 | 80.44278 | -139.21852 | 33024 ft | 528 kts | 33° |
| 2026-05-07 17:11 | 80.50265 | -138.96664 | 33023 ft | 528 kts | 34° |
| 2026-05-07 17:11 | 80.56244 | -138.70705 | 33024 ft | 528 kts | 34° |
| 2026-05-07 17:12 | 80.62205 | -138.44406 | 33024 ft | 528 kts | 35° |
| 2026-05-07 17:12 | 80.68145 | -138.17784 | 33023 ft | 528 kts | 35° |
| 2026-05-07 17:13 | 80.74027 | -137.91001 | 33024 ft | 528 kts | 35° |
| 2026-05-07 17:13 | 80.79926 | -137.63710 | 33024 ft | 529 kts | 36° |
| 2026-05-07 17:14 | 80.85809 | -137.36046 | 33023 ft | 529 kts | 36° |
| 2026-05-07 17:14 | 80.91676 | -137.08003 | 33024 ft | 529 kts | 36° |
| 2026-05-07 17:15 | 80.97516 | -136.79624 | 33023 ft | 529 kts | 37° |
| 2026-05-07 17:15 | 81.03335 | -136.50872 | 33023 ft | 529 kts | 37° |
| 2026-05-07 17:16 | 81.09133 | -136.21746 | 33024 ft | 529 kts | 37° |
| 2026-05-07 17:16 | 81.14911 | -135.92224 | 33023 ft | 529 kts | 37° |
| 2026-05-07 17:17 | 81.20624 | -135.62532 | 33023 ft | 529 kts | 38° |
| 2026-05-07 17:17 | 81.26357 | -135.32229 | 32995 ft | 530 kts | 38° |
| 2026-05-07 17:18 | 81.32080 | -135.01451 | 32993 ft | 530 kts | 38° |
| 2026-05-07 17:18 | 81.37773 | -134.70293 | 32994 ft | 530 kts | 39° |
| 2026-05-07 17:19 | 81.43444 | -134.38705 | 32994 ft | 531 kts | 39° |
| 2026-05-07 17:19 | 81.49049 | -134.06933 | 32993 ft | 531 kts | 39° |
| 2026-05-07 17:20 | 81.54669 | -133.74498 | 32994 ft | 531 kts | 39° |
| 2026-05-07 17:20 | 81.60266 | -133.41618 | 32994 ft | 531 kts | 40° |
| 2026-05-07 17:21 | 81.65831 | -133.08318 | 32993 ft | 531 kts | 40° |
| 2026-05-07 17:21 | 81.71333 | -132.74796 | 32995 ft | 531 kts | 40° |
| 2026-05-07 17:22 | 81.76843 | -132.40600 | 32994 ft | 531 kts | 41° |
| 2026-05-07 17:22 | 81.82324 | -132.05948 | 32993 ft | 531 kts | 41° |
| 2026-05-07 17:23 | 81.87779 | -131.70804 | 32995 ft | 531 kts | 41° |
| 2026-05-07 17:23 | 81.93206 | -131.35174 | 32994 ft | 531 kts | 42° |
| 2026-05-07 17:24 | 81.98561 | -130.99341 | 32993 ft | 531 kts | 42° |
| 2026-05-07 17:24 | 82.03917 | -130.62806 | 33022 ft | 531 kts | 43° |
| 2026-05-07 17:25 | 82.09245 | -130.25752 | 33140 ft | 530 kts | 43° |
| 2026-05-07 17:25 | 82.14523 | -129.88323 | 33141 ft | 530 kts | 44° |
| 2026-05-07 17:26 | 82.19738 | -129.50603 | 33142 ft | 530 kts | 44° |
| 2026-05-07 17:26 | 82.24952 | -129.12141 | 33142 ft | 530 kts | 44° |
| 2026-05-07 17:27 | 82.30131 | -128.73157 | 33141 ft | 530 kts | 45° |
| 2026-05-07 17:27 | 82.35276 | -128.33640 | 33142 ft | 530 kts | 45° |
| 2026-05-07 17:28 | 82.40381 | -127.93626 | 33142 ft | 530 kts | 45° |
| 2026-05-07 17:28 | 82.45419 | -127.53311 | 33141 ft | 530 kts | 46° |
| 2026-05-07 17:29 | 82.50455 | -127.12168 | 33142 ft | 530 kts | 46° |
| 2026-05-07 17:29 | 82.55452 | -126.70474 | 33142 ft | 530 kts | 47° |
| 2026-05-07 17:30 | 82.60408 | -126.28235 | 33141 ft | 530 kts | 47° |
| 2026-05-07 17:30 | 82.65294 | -125.85696 | 33142 ft | 530 kts | 47° |
| 2026-05-07 17:31 | 82.70168 | -125.42337 | 33142 ft | 530 kts | 48° |
| 2026-05-07 17:31 | 82.75005 | -124.98352 | 33141 ft | 530 kts | 49° |
| 2026-05-07 17:32 | 82.79797 | -124.53807 | 33240 ft | 529 kts | 49° |
| 2026-05-07 17:32 | 82.84532 | -124.08789 | 33287 ft | 528 kts | 50° |
| 2026-05-07 17:33 | 82.89250 | -123.62916 | 33290 ft | 528 kts | 50° |
| 2026-05-07 17:33 | 82.93859 | -123.17075 | 33290 ft | 528 kts | 51° |
| 2026-05-07 17:34 | 82.98451 | -122.70344 | 33288 ft | 528 kts | 51° |
| 2026-05-07 17:34 | 83.03000 | -122.22966 | 33290 ft | 528 kts | 52° |
| 2026-05-07 17:35 | 83.07496 | -121.75019 | 33290 ft | 528 kts | 52° |
| 2026-05-07 17:35 | 83.11953 | -121.26352 | 33288 ft | 528 kts | 52° |
| 2026-05-07 17:36 | 83.16353 | -120.77141 | 33289 ft | 528 kts | 53° |
| 2026-05-07 17:36 | 83.20706 | -120.27251 | 33290 ft | 528 kts | 53° |
| 2026-05-07 17:37 | 83.25006 | -119.76740 | 33288 ft | 528 kts | 54° |
| 2026-05-07 17:37 | 83.29224 | -119.25957 | 33289 ft | 529 kts | 54° |
| 2026-05-07 17:38 | 83.33419 | -118.74153 | 33290 ft | 529 kts | 55° |
| 2026-05-07 17:38 | 83.37560 | -118.21696 | 33288 ft | 529 kts | 56° |
| 2026-05-07 17:39 | 83.41645 | -117.68590 | 33289 ft | 529 kts | 56° |
| 2026-05-07 17:39 | 83.45670 | -117.14870 | 33387 ft | 529 kts | 57° |
| 2026-05-07 17:40 | 83.49635 | -116.60528 | 33407 ft | 532 kts | 58° |
| 2026-05-07 17:40 | 83.53599 | -116.04696 | 33408 ft | 532 kts | 58° |
| 2026-05-07 17:41 | 83.57467 | -115.48687 | 33407 ft | 531 kts | 59° |
| 2026-05-07 17:41 | 83.61275 | -114.91997 | 33407 ft | 531 kts | 59° |
| 2026-05-07 17:42 | 83.65017 | -114.34676 | 33408 ft | 531 kts | 60° |
| 2026-05-07 17:42 | 83.68725 | -113.76215 | 33407 ft | 531 kts | 61° |
| 2026-05-07 17:43 | 83.72338 | -113.17546 | 33407 ft | 531 kts | 62° |
| 2026-05-07 17:43 | 83.75889 | -112.58147 | 33408 ft | 531 kts | 62° |
| 2026-05-07 17:44 | 83.79345 | -111.98538 | 33407 ft | 531 kts | 63° |
| 2026-05-07 17:44 | 83.82758 | -111.37862 | 33407 ft | 531 kts | 63° |
| 2026-05-07 17:45 | 83.86100 | -110.76525 | 33408 ft | 531 kts | 64° |
| 2026-05-07 17:45 | 83.89372 | -110.14517 | 33407 ft | 531 kts | 64° |
| 2026-05-07 17:46 | 83.92573 | -109.51860 | 33407 ft | 531 kts | 65° |
| 2026-05-07 17:46 | 83.95699 | -108.88570 | 33408 ft | 531 kts | 66° |
| 2026-05-07 17:47 | 83.98714 | -108.25425 | 33408 ft | 526 kts | 67° |
| 2026-05-07 17:47 | 84.01662 | -107.61524 | 33408 ft | 525 kts | 67° |
| 2026-05-07 17:48 | 84.04536 | -106.97005 | 33407 ft | 526 kts | 68° |
| 2026-05-07 17:48 | 84.07335 | -106.31816 | 33408 ft | 526 kts | 69° |
| 2026-05-07 17:49 | 84.10060 | -105.65981 | 33408 ft | 526 kts | 69° |
| 2026-05-07 17:49 | 84.12686 | -105.00059 | 33407 ft | 525 kts | 70° |
| 2026-05-07 17:50 | 84.15249 | -104.33156 | 33407 ft | 525 kts | 71° |
| 2026-05-07 17:50 | 84.17734 | -103.65653 | 33408 ft | 525 kts | 71° |
| 2026-05-07 17:51 | 84.20139 | -102.97538 | 33407 ft | 525 kts | 72° |
| 2026-05-07 17:51 | 84.22458 | -102.28961 | 33407 ft | 525 kts | 73° |
| 2026-05-07 17:52 | 84.24698 | -101.59771 | 33408 ft | 525 kts | 73° |
| 2026-05-07 17:52 | 84.26851 | -100.90120 | 33407 ft | 525 kts | 74° |
| 2026-05-07 17:53 | 84.28918 | -100.19993 | 33407 ft | 525 kts | 75° |
| 2026-05-07 17:53 | 84.30900 | -99.49366 | 33408 ft | 525 kts | 76° |
| 2026-05-07 17:54 | 84.32749 | -98.80070 | 33407 ft | 525 kts | 76° |
| 2026-05-07 17:54 | 84.34545 | -98.09058 | 33494 ft | 525 kts | 77° |
| 2026-05-07 17:55 | 84.36281 | -97.36485 | 33495 ft | 525 kts | 78° |
| 2026-05-07 17:55 | 84.37914 | -96.64080 | 33496 ft | 524 kts | 78° |
| 2026-05-07 17:56 | 84.39455 | -95.91328 | 33509 ft | 525 kts | 79° |
| 2026-05-07 17:56 | 84.40185 | -95.55171 | 33660 ft | 526 kts | 80° |
| 2026-05-07 17:56 | 84.40901 | -95.18476 | 33907 ft | 524 kts | 80° |
| 2026-05-07 17:57 | 84.41592 | -94.81817 | 34173 ft | 523 kts | 81° |
| 2026-05-07 17:57 | 84.42045 | -94.57026 | 34361 ft | 522 kts | 81° |
| 2026-05-07 17:57 | 84.42900 | -94.08536 | 34741 ft | 519 kts | 81° |
| 2026-05-07 17:57 | 84.43516 | -93.71985 | 35057 ft | 516 kts | 82° |
| 2026-05-07 17:58 | 84.44112 | -93.35199 | 35388 ft | 513 kts | 82° |
| 2026-05-07 17:58 | 84.44676 | -92.98950 | 35536 ft | 510 kts | 82° |
| 2026-05-07 17:58 | 84.45731 | -92.26729 | 35491 ft | 506 kts | 83° |
| 2026-05-07 17:59 | 84.46535 | -91.67001 | 35496 ft | 503 kts | 84° |
| 2026-05-07 17:59 | 84.47422 | -90.94952 | 35496 ft | 504 kts | 84° |
| 2026-05-07 18:00 | 84.48224 | -90.22540 | 35497 ft | 505 kts | 85° |
| 2026-05-07 18:00 | 84.49045 | -89.38122 | 35497 ft | 505 kts | 86° |
| 2026-05-07 18:01 | 84.49559 | -88.77551 | 35497 ft | 505 kts | 86° |
| 2026-05-07 18:01 | 84.50097 | -88.04634 | 35495 ft | 505 kts | 87° |
| 2026-05-07 18:02 | 84.50736 | -86.95184 | 35496 ft | 502 kts | 88° |
| 2026-05-07 18:03 | 84.51049 | -86.22515 | 35496 ft | 501 kts | 89° |
| 2026-05-07 18:03 | 84.51274 | -85.50207 | 35496 ft | 502 kts | 89° |
| 2026-05-07 18:04 | 84.51412 | -84.77333 | 35495 ft | 502 kts | 90° |
| 2026-05-07 18:04 | 84.51463 | -84.03897 | 35496 ft | 502 kts | 91° |
| 2026-05-07 18:05 | 84.51424 | -83.31359 | 35495 ft | 502 kts | 91° |
| 2026-05-07 18:05 | 84.51298 | -82.58413 | 35497 ft | 502 kts | 92° |
| 2026-05-07 18:06 | 84.51083 | -81.85502 | 35495 ft | 502 kts | 93° |
| 2026-05-07 18:06 | 84.50779 | -81.12591 | 35497 ft | 502 kts | 94° |
| 2026-05-07 18:07 | 84.50387 | -80.39815 | 35495 ft | 503 kts | 94° |
| 2026-05-07 18:07 | 84.49908 | -79.67178 | 35497 ft | 503 kts | 95° |
| 2026-05-07 18:08 | 84.49340 | -78.94600 | 35495 ft | 503 kts | 96° |
| 2026-05-07 18:08 | 84.48685 | -78.22200 | 35496 ft | 503 kts | 96° |
| 2026-05-07 18:09 | 84.47942 | -77.49887 | 35495 ft | 503 kts | 97° |
| 2026-05-07 18:09 | 84.47111 | -76.77816 | 35496 ft | 503 kts | 98° |
| 2026-05-07 18:10 | 84.46200 | -76.06388 | 35496 ft | 505 kts | 98° |
| 2026-05-07 18:10 | 84.45191 | -75.34308 | 35496 ft | 507 kts | 99° |
| 2026-05-07 18:11 | 84.44085 | -74.61923 | 35495 ft | 507 kts | 100° |
| 2026-05-07 18:11 | 84.42902 | -73.90452 | 35496 ft | 506 kts | 101° |
| 2026-05-07 18:12 | 84.41643 | -73.19785 | 35496 ft | 506 kts | 101° |
| 2026-05-07 18:12 | 84.40280 | -72.48461 | 35496 ft | 506 kts | 102° |
| 2026-05-07 18:13 | 84.38851 | -71.78414 | 35496 ft | 506 kts | 103° |
| 2026-05-07 18:13 | 84.37318 | -71.07809 | 35496 ft | 506 kts | 103° |
| 2026-05-07 18:14 | 84.35724 | -70.38560 | 35496 ft | 506 kts | 104° |
| 2026-05-07 18:14 | 84.34036 | -69.69207 | 35495 ft | 506 kts | 105° |
| 2026-05-07 18:15 | 84.32256 | -68.99886 | 35497 ft | 506 kts | 105° |
| 2026-05-07 18:15 | 84.30405 | -68.31413 | 35495 ft | 506 kts | 106° |
| 2026-05-07 18:16 | 84.28489 | -67.63916 | 35497 ft | 506 kts | 107° |
| 2026-05-07 18:16 | 84.26480 | -66.96351 | 35495 ft | 506 kts | 108° |
| 2026-05-07 18:17 | 84.24392 | -66.29284 | 35497 ft | 506 kts | 108° |
| 2026-05-07 18:17 | 84.22227 | -65.62741 | 35496 ft | 506 kts | 109° |
| 2026-05-07 18:18 | 84.19995 | -64.96937 | 35496 ft | 503 kts | 109° |
| 2026-05-07 18:18 | 84.17698 | -64.31941 | 35496 ft | 501 kts | 110° |
| 2026-05-07 18:19 | 84.15341 | -63.67831 | 35496 ft | 502 kts | 111° |
| 2026-05-07 18:19 | 84.12896 | -63.03823 | 35495 ft | 502 kts | 111° |
| 2026-05-07 18:20 | 84.10760 | -62.39045 | 35496 ft | 502 kts | 105° |
| 2026-05-07 18:20 | 84.08503 | -61.74422 | 35496 ft | 503 kts | 115° |
| 2026-05-07 18:21 | 84.05350 | -61.14182 | 35498 ft | 503 kts | 117° |
| 2026-05-07 18:21 | 84.02468 | -60.53387 | 35495 ft | 502 kts | 114° |
| 2026-05-07 18:22 | 83.99658 | -59.92267 | 35496 ft | 502 kts | 114° |
| 2026-05-07 18:22 | 83.97126 | -59.30188 | 35495 ft | 502 kts | 111° |
| 2026-05-07 18:23 | 83.94546 | -58.68528 | 35497 ft | 502 kts | 114° |
| 2026-05-07 18:23 | 83.91626 | -58.08295 | 35495 ft | 502 kts | 117° |
| 2026-05-07 18:24 | 83.88301 | -57.50295 | 35496 ft | 502 kts | 121° |
| 2026-05-07 18:24 | 83.84638 | -56.95303 | 35491 ft | 501 kts | 120° |
| 2026-05-07 18:25 | 83.82142 | -56.34849 | 35500 ft | 503 kts | 105° |
| 2026-05-07 18:25 | 83.80581 | -55.71641 | 35496 ft | 502 kts | 103° |
| 2026-05-07 18:26 | 83.78848 | -55.09300 | 35496 ft | 500 kts | 108° |
| 2026-05-07 18:26 | 83.76432 | -54.49264 | 35495 ft | 500 kts | 114° |
| 2026-05-07 18:27 | 83.73538 | -53.91721 | 35497 ft | 500 kts | 116° |
| 2026-05-07 18:27 | 83.70441 | -53.34774 | 35495 ft | 500 kts | 117° |
| 2026-05-07 18:28 | 83.67333 | -52.78150 | 35496 ft | 500 kts | 117° |
| 2026-05-07 18:28 | 83.64193 | -52.21914 | 35495 ft | 500 kts | 117° |
| 2026-05-07 18:29 | 83.61031 | -51.66678 | 35496 ft | 500 kts | 118° |
| 2026-05-07 18:29 | 83.57791 | -51.11580 | 35495 ft | 500 kts | 118° |
| 2026-05-07 18:30 | 83.54493 | -50.57020 | 35496 ft | 500 kts | 119° |
| 2026-05-07 18:30 | 83.51139 | -50.03026 | 35496 ft | 500 kts | 120° |
| 2026-05-07 18:31 | 83.47728 | -49.49574 | 35496 ft | 500 kts | 120° |
| 2026-05-07 18:31 | 83.44262 | -48.96702 | 35496 ft | 500 kts | 121° |
| 2026-05-07 18:32 | 83.40764 | -48.44725 | 35496 ft | 500 kts | 121° |
| 2026-05-07 18:32 | 83.37190 | -47.92968 | 35496 ft | 500 kts | 122° |
| 2026-05-07 18:33 | 83.33558 | -47.41701 | 35495 ft | 500 kts | 122° |
| 2026-05-07 18:33 | 83.29879 | -46.91054 | 35496 ft | 500 kts | 123° |
| 2026-05-07 18:34 | 83.26153 | -46.41024 | 35495 ft | 499 kts | 123° |
| 2026-05-07 18:34 | 83.22376 | -45.91539 | 35496 ft | 499 kts | 124° |
| 2026-05-07 18:35 | 83.18547 | -45.42568 | 35495 ft | 500 kts | 124° |
| 2026-05-07 18:35 | 83.14696 | -44.94473 | 35497 ft | 500 kts | 125° |
| 2026-05-07 18:36 | 83.10770 | -44.46589 | 35495 ft | 500 kts | 126° |
| 2026-05-07 18:36 | 83.06802 | -43.99304 | 35497 ft | 500 kts | 126° |
| 2026-05-07 18:37 | 83.02784 | -43.52517 | 35495 ft | 500 kts | 126° |
| 2026-05-07 18:37 | 82.98716 | -43.06223 | 35497 ft | 500 kts | 127° |
| 2026-05-07 18:38 | 82.94581 | -42.60205 | 35495 ft | 500 kts | 127° |
| 2026-05-07 18:38 | 82.90429 | -42.15032 | 35497 ft | 500 kts | 128° |
| 2026-05-07 18:39 | 82.86232 | -41.70358 | 35495 ft | 500 kts | 128° |
| 2026-05-07 18:39 | 82.81991 | -41.26196 | 35497 ft | 500 kts | 129° |
| 2026-05-07 18:40 | 82.77710 | -40.82559 | 35495 ft | 500 kts | 129° |
| 2026-05-07 18:40 | 82.73417 | -40.39727 | 35497 ft | 500 kts | 129° |
| 2026-05-07 18:41 | 82.69054 | -39.97106 | 35496 ft | 499 kts | 130° |
| 2026-05-07 18:41 | 82.64659 | -39.55066 | 35496 ft | 498 kts | 130° |
| 2026-05-07 18:42 | 82.60237 | -39.13629 | 35496 ft | 498 kts | 130° |
| 2026-05-07 18:42 | 82.55775 | -38.72665 | 35496 ft | 498 kts | 131° |
| 2026-05-07 18:43 | 82.51272 | -38.32149 | 35496 ft | 498 kts | 131° |
| 2026-05-07 18:43 | 82.46732 | -37.92122 | 35496 ft | 498 kts | 132° |
| 2026-05-07 18:44 | 82.42154 | -37.52546 | 35496 ft | 498 kts | 132° |
| 2026-05-07 18:44 | 82.37573 | -37.13726 | 35496 ft | 498 kts | 133° |
| 2026-05-07 18:45 | 82.32930 | -36.75131 | 35496 ft | 498 kts | 133° |
| 2026-05-07 18:45 | 82.28252 | -36.36992 | 35495 ft | 498 kts | 133° |
| 2026-05-07 18:46 | 82.23536 | -35.99282 | 35496 ft | 498 kts | 134° |
| 2026-05-07 18:46 | 82.18795 | -35.62084 | 35495 ft | 498 kts | 134° |
| 2026-05-07 18:47 | 82.14011 | -35.25245 | 35496 ft | 498 kts | 134° |
| 2026-05-07 18:47 | 82.09198 | -34.88876 | 35495 ft | 498 kts | 135° |
| 2026-05-07 18:48 | 82.04354 | -34.52949 | 35497 ft | 498 kts | 135° |
| 2026-05-07 18:48 | 81.99482 | -34.17469 | 35495 ft | 498 kts | 135° |
| 2026-05-07 18:49 | 81.94616 | -33.82664 | 35497 ft | 496 kts | 136° |
| 2026-05-07 18:49 | 81.89730 | -33.48352 | 35495 ft | 492 kts | 136° |
| 2026-05-07 18:50 | 81.84835 | -33.14574 | 35496 ft | 492 kts | 137° |
| 2026-05-07 18:50 | 81.79903 | -32.81136 | 35496 ft | 493 kts | 137° |
| 2026-05-07 18:51 | 81.74969 | -32.48260 | 35496 ft | 493 kts | 137° |
| 2026-05-07 18:51 | 81.69976 | -32.15566 | 35496 ft | 493 kts | 138° |
| 2026-05-07 18:52 | 81.64899 | -31.82893 | 35496 ft | 493 kts | 138° |
| 2026-05-07 18:52 | 81.59883 | -31.51161 | 35496 ft | 493 kts | 139° |
| 2026-05-07 18:53 | 81.54811 | -31.19617 | 35496 ft | 493 kts | 139° |
| 2026-05-07 18:53 | 81.49722 | -30.88488 | 35496 ft | 493 kts | 139° |
| 2026-05-07 18:54 | 81.45464 | -30.62843 | 35496 ft | 493 kts | 139° |
| 2026-05-07 18:54 | 81.39491 | -30.27457 | 35496 ft | 493 kts | 140° |
| 2026-05-07 18:55 | 81.34324 | -29.97391 | 35496 ft | 493 kts | 140° |
| 2026-05-07 18:55 | 81.29131 | -29.67657 | 35496 ft | 493 kts | 140° |
| 2026-05-07 18:56 | 81.23920 | -29.38304 | 35496 ft | 493 kts | 141° |
| 2026-05-07 18:56 | 81.19564 | -29.14129 | 35496 ft | 493 kts | 141° |
| 2026-05-07 18:57 | 81.13680 | -28.81974 | 35495 ft | 497 kts | 141° |
| 2026-05-07 18:57 | 81.08338 | -28.53274 | 35497 ft | 500 kts | 141° |
| 2026-05-07 18:58 | 81.03871 | -28.29625 | 35496 ft | 500 kts | 141° |
| 2026-05-07 18:58 | 80.98487 | -28.01533 | 35496 ft | 499 kts | 141° |
| 2026-05-07 18:59 | 80.93093 | -27.73830 | 35496 ft | 499 kts | 142° |
| 2026-05-07 18:59 | 80.87668 | -27.46394 | 35496 ft | 499 kts | 142° |
| 2026-05-07 19:00 | 80.82224 | -27.19293 | 35496 ft | 499 kts | 142° |
| 2026-05-07 19:00 | 80.76755 | -26.92484 | 35496 ft | 499 kts | 142° |
| 2026-05-07 19:01 | 80.71310 | -26.66194 | 35496 ft | 499 kts | 143° |
| 2026-05-07 19:01 | 80.65803 | -26.40006 | 35495 ft | 500 kts | 143° |
| 2026-05-07 19:02 | 80.60281 | -26.14146 | 35496 ft | 500 kts | 143° |
| 2026-05-07 19:02 | 80.54736 | -25.88563 | 35495 ft | 500 kts | 143° |
| 2026-05-07 19:03 | 80.49175 | -25.63283 | 35496 ft | 500 kts | 143° |
| 2026-05-07 19:03 | 80.43628 | -25.38441 | 35495 ft | 500 kts | 144° |
| 2026-05-07 19:04 | 80.38029 | -25.13729 | 35497 ft | 500 kts | 144° |
| 2026-05-07 19:04 | 80.32414 | -24.89310 | 35495 ft | 500 kts | 144° |
| 2026-05-07 19:04 | 80.29592 | -24.77172 | 35394 ft | 501 kts | 144° |
| 2026-05-07 19:05 | 80.26768 | -24.65107 | 35361 ft | 502 kts | 144° |
| 2026-05-07 19:05 | 80.21068 | -24.41030 | 35349 ft | 505 kts | 144° |
| 2026-05-07 19:06 | 80.15382 | -24.17354 | 35348 ft | 505 kts | 145° |
| 2026-05-07 19:06 | 80.06726 | -23.81954 | 35348 ft | 506 kts | 145° |
| 2026-05-07 19:07 | 80.00919 | -23.58625 | 35349 ft | 512 kts | 145° |
| 2026-05-07 19:07 | 79.95073 | -23.35476 | 35349 ft | 515 kts | 146° |
| 2026-05-07 19:08 | 79.89159 | -23.12393 | 35348 ft | 514 kts | 146° |
| 2026-05-07 19:08 | 79.83237 | -22.89600 | 35349 ft | 514 kts | 146° |
| 2026-05-07 19:09 | 79.77308 | -22.67106 | 35348 ft | 514 kts | 146° |
| 2026-05-07 19:09 | 79.71318 | -22.44693 | 35349 ft | 514 kts | 147° |
| 2026-05-07 19:10 | 79.65396 | -22.22846 | 35348 ft | 514 kts | 147° |
| 2026-05-07 19:10 | 79.59419 | -22.01097 | 35349 ft | 514 kts | 147° |
| 2026-05-07 19:11 | 79.53422 | -21.79573 | 35348 ft | 514 kts | 147° |
| 2026-05-07 19:11 | 79.47415 | -21.58309 | 35349 ft | 514 kts | 147° |
| 2026-05-07 19:12 | 79.41395 | -21.37288 | 35345 ft | 514 kts | 147° |
| 2026-05-07 19:12 | 79.35326 | -21.16378 | 35291 ft | 518 kts | 147° |
| 2026-05-07 19:13 | 79.29271 | -20.95795 | 35290 ft | 518 kts | 147° |
| 2026-05-07 19:13 | 79.23214 | -20.74908 | 35288 ft | 518 kts | 146° |
| 2026-05-07 19:14 | 79.17082 | -20.54252 | 35289 ft | 518 kts | 148° |
| 2026-05-07 19:14 | 79.10905 | -20.34600 | 35289 ft | 518 kts | 148° |
| 2026-05-07 19:15 | 79.04777 | -20.15131 | 35289 ft | 518 kts | 148° |
| 2026-05-07 19:15 | 78.98741 | -19.94600 | 35290 ft | 517 kts | 143° |
| 2026-05-07 19:16 | 78.93129 | -19.71095 | 35290 ft | 517 kts | 139° |
| 2026-05-07 19:16 | 78.87659 | -19.46844 | 35288 ft | 517 kts | 139° |
| 2026-05-07 19:17 | 78.82121 | -19.23153 | 35290 ft | 517 kts | 140° |
| 2026-05-07 19:17 | 78.76532 | -19.00264 | 35288 ft | 517 kts | 142° |
| 2026-05-07 19:18 | 78.70824 | -18.77502 | 35291 ft | 517 kts | 139° |
| 2026-05-07 19:18 | 78.65465 | -18.53075 | 35287 ft | 517 kts | 137° |
| 2026-05-07 19:19 | 78.60045 | -18.29142 | 35290 ft | 517 kts | 139° |
| 2026-05-07 19:19 | 78.54497 | -18.06119 | 35288 ft | 517 kts | 141° |
| 2026-05-07 19:20 | 78.48851 | -17.83426 | 35252 ft | 522 kts | 141° |
| 2026-05-07 19:20 | 78.43183 | -17.60953 | 35254 ft | 525 kts | 141° |
| 2026-05-07 19:21 | 78.37449 | -17.38504 | 35252 ft | 524 kts | 141° |
| 2026-05-07 19:21 | 78.31708 | -17.16307 | 35254 ft | 524 kts | 141° |
| 2026-05-07 19:22 | 78.25954 | -16.94341 | 35253 ft | 524 kts | 141° |
| 2026-05-07 19:22 | 78.20181 | -16.72578 | 35254 ft | 524 kts | 142° |
| 2026-05-07 19:23 | 78.14386 | -16.51004 | 35254 ft | 524 kts | 142° |
| 2026-05-07 19:23 | 78.08615 | -16.29780 | 35254 ft | 524 kts | 142° |
| 2026-05-07 19:24 | 78.02789 | -16.08620 | 35255 ft | 524 kts | 142° |
| 2026-05-07 19:24 | 77.96951 | -15.87674 | 35254 ft | 524 kts | 142° |
| 2026-05-07 19:25 | 77.91091 | -15.66903 | 35255 ft | 524 kts | 143° |
| 2026-05-07 19:25 | 77.85223 | -15.46359 | 35254 ft | 524 kts | 143° |
| 2026-05-07 19:26 | 77.79335 | -15.25989 | 35256 ft | 524 kts | 143° |
| 2026-05-07 19:26 | 77.73470 | -15.05941 | 35254 ft | 524 kts | 143° |
| 2026-05-07 19:27 | 77.67997 | -14.87448 | 35249 ft | 524 kts | 143° |
| 2026-05-07 19:27 | 77.62247 | -14.68236 | 35231 ft | 520 kts | 143° |
| 2026-05-07 19:28 | 77.56373 | -14.48836 | 35230 ft | 517 kts | 144° |
| 2026-05-07 19:28 | 77.50486 | -14.29615 | 35231 ft | 518 kts | 144° |
| 2026-05-07 19:29 | 77.44621 | -14.10688 | 35230 ft | 518 kts | 144° |
| 2026-05-07 19:29 | 77.38698 | -13.91792 | 35230 ft | 518 kts | 144° |
| 2026-05-07 19:30 | 77.32699 | -13.72876 | 35230 ft | 518 kts | 144° |
| 2026-05-07 19:30 | 77.26779 | -13.54417 | 35230 ft | 518 kts | 144° |
| 2026-05-07 19:31 | 77.20820 | -13.36047 | 35230 ft | 518 kts | 145° |
| 2026-05-07 19:31 | 77.14892 | -13.17977 | 35230 ft | 518 kts | 145° |
| 2026-05-07 19:32 | 77.08861 | -12.99798 | 35230 ft | 518 kts | 145° |
| 2026-05-07 19:32 | 77.02863 | -12.81922 | 35230 ft | 519 kts | 145° |
| 2026-05-07 19:33 | 76.96852 | -12.64202 | 35230 ft | 519 kts | 146° |
| 2026-05-07 19:33 | 76.90833 | -12.46655 | 35230 ft | 519 kts | 146° |
| 2026-05-07 19:34 | 76.84797 | -12.29253 | 35230 ft | 519 kts | 146° |
| 2026-05-07 19:34 | 76.78706 | -12.11882 | 35230 ft | 519 kts | 146° |
| 2026-05-07 19:35 | 76.72691 | -11.94913 | 35313 ft | 520 kts | 146° |
| 2026-05-07 19:35 | 76.66597 | -11.77907 | 35320 ft | 521 kts | 146° |
| 2026-05-07 19:36 | 76.60488 | -11.61043 | 35318 ft | 520 kts | 146° |
| 2026-05-07 19:36 | 76.54384 | -11.44372 | 35319 ft | 520 kts | 146° |
| 2026-05-07 19:37 | 76.48258 | -11.27823 | 35318 ft | 520 kts | 147° |
| 2026-05-07 19:37 | 76.42129 | -11.11437 | 35319 ft | 520 kts | 147° |
| 2026-05-07 19:38 | 76.36022 | -10.95283 | 35318 ft | 520 kts | 147° |
| 2026-05-07 19:38 | 76.29868 | -10.79173 | 35319 ft | 520 kts | 147° |
| 2026-05-07 19:39 | 76.23707 | -10.63217 | 35318 ft | 520 kts | 147° |
| 2026-05-07 19:39 | 76.17529 | -10.47381 | 35319 ft | 520 kts | 147° |
| 2026-05-07 19:40 | 76.11343 | -10.31687 | 35319 ft | 520 kts | 147° |
| 2026-05-07 19:40 | 76.05186 | -10.16228 | 35318 ft | 520 kts | 148° |
| 2026-05-07 19:41 | 75.98983 | -10.00813 | 35319 ft | 520 kts | 148° |
| 2026-05-07 19:41 | 75.92767 | -9.85525 | 35318 ft | 521 kts | 148° |
| 2026-05-07 19:42 | 75.86538 | -9.70356 | 35320 ft | 521 kts | 148° |
| 2026-05-07 19:42 | 75.80338 | -9.55413 | 35318 ft | 521 kts | 148° |
| 2026-05-07 19:43 | 75.74093 | -9.40513 | 35319 ft | 521 kts | 148° |
| 2026-05-07 19:43 | 75.67837 | -9.25733 | 35318 ft | 521 kts | 148° |
| 2026-05-07 19:44 | 75.61576 | -9.11091 | 35319 ft | 521 kts | 149° |
| 2026-05-07 19:44 | 75.55303 | -8.96564 | 35319 ft | 521 kts | 149° |
| 2026-05-07 19:45 | 75.49016 | -8.82151 | 35318 ft | 521 kts | 149° |
| 2026-05-07 19:45 | 75.42722 | -8.67862 | 35320 ft | 521 kts | 149° |
| 2026-05-07 19:46 | 75.36461 | -8.53785 | 35318 ft | 521 kts | 149° |
| 2026-05-07 19:46 | 75.30148 | -8.39731 | 35319 ft | 521 kts | 149° |
| 2026-05-07 19:47 | 75.23830 | -8.25801 | 35319 ft | 521 kts | 149° |
| 2026-05-07 19:47 | 75.17504 | -8.11989 | 35318 ft | 521 kts | 149° |
| 2026-05-07 19:48 | 75.11169 | -7.98288 | 35319 ft | 521 kts | 150° |
| 2026-05-07 19:48 | 75.04819 | -7.84688 | 35319 ft | 521 kts | 150° |
| 2026-05-07 19:49 | 74.98506 | -7.71295 | 35318 ft | 521 kts | 150° |
| 2026-05-07 19:49 | 74.92149 | -7.57933 | 35319 ft | 521 kts | 150° |
| 2026-05-07 19:50 | 74.85776 | -7.44666 | 35319 ft | 521 kts | 150° |
| 2026-05-07 19:50 | 74.79397 | -7.31513 | 35318 ft | 521 kts | 150° |
| 2026-05-07 19:51 | 74.73013 | -7.18471 | 35319 ft | 521 kts | 150° |
| 2026-05-07 19:51 | 74.66660 | -7.05611 | 35319 ft | 521 kts | 150° |
| 2026-05-07 19:52 | 74.60262 | -6.92781 | 35318 ft | 521 kts | 151° |
| 2026-05-07 19:52 | 74.53850 | -6.80042 | 35319 ft | 521 kts | 151° |
| 2026-05-07 19:53 | 74.47389 | -6.67323 | 35319 ft | 521 kts | 151° |
| 2026-05-07 19:53 | 74.40965 | -6.54793 | 35318 ft | 521 kts | 151° |
| 2026-05-07 19:54 | 74.34490 | -6.42278 | 35319 ft | 521 kts | 151° |
| 2026-05-07 19:54 | 74.28056 | -6.29956 | 35169 ft | 520 kts | 152° |
| 2026-05-07 19:55 | 74.21675 | -6.17843 | 35114 ft | 518 kts | 152° |
| 2026-05-07 19:55 | 74.15255 | -6.05768 | 35112 ft | 519 kts | 152° |
| 2026-05-07 19:56 | 74.08812 | -5.93756 | 35111 ft | 520 kts | 152° |
| 2026-05-07 19:56 | 74.02358 | -5.81829 | 35112 ft | 520 kts | 152° |
| 2026-05-07 19:57 | 73.95910 | -5.70020 | 35113 ft | 520 kts | 152° |
| 2026-05-07 19:57 | 73.89443 | -5.58281 | 35112 ft | 520 kts | 152° |
| 2026-05-07 19:58 | 73.84071 | -5.48606 | 35113 ft | 520 kts | 152° |
| 2026-05-07 19:58 | 73.77597 | -5.37041 | 35112 ft | 520 kts | 153° |
| 2026-05-07 19:59 | 73.71115 | -5.25562 | 35111 ft | 520 kts | 153° |
| 2026-05-07 19:59 | 73.64623 | -5.14166 | 35112 ft | 520 kts | 153° |
| 2026-05-07 20:00 | 73.58176 | -5.02945 | 35113 ft | 520 kts | 153° |
| 2026-05-07 20:00 | 73.51676 | -4.91729 | 35112 ft | 520 kts | 153° |
| 2026-05-07 20:01 | 73.45170 | -4.80599 | 35111 ft | 520 kts | 153° |
| 2026-05-07 20:01 | 73.38661 | -4.69558 | 35112 ft | 520 kts | 153° |
| 2026-05-07 20:02 | 73.32096 | -4.58515 | 35113 ft | 520 kts | 153° |
| 2026-05-07 20:02 | 73.25588 | -4.47663 | 35112 ft | 519 kts | 154° |
| 2026-05-07 20:03 | 73.19077 | -4.36895 | 35111 ft | 519 kts | 154° |
| 2026-05-07 20:03 | 73.12597 | -4.26270 | 35112 ft | 519 kts | 154° |
| 2026-05-07 20:04 | 73.06075 | -4.15663 | 35113 ft | 519 kts | 154° |
| 2026-05-07 20:04 | 72.99542 | -4.05127 | 35112 ft | 519 kts | 154° |
| 2026-05-07 20:05 | 72.93005 | -3.94670 | 35111 ft | 519 kts | 154° |
| 2026-05-07 20:05 | 72.86512 | -3.84369 | 35112 ft | 519 kts | 154° |
| 2026-05-07 20:06 | 72.80010 | -3.74138 | 35112 ft | 519 kts | 154° |
| 2026-05-07 20:06 | 72.73407 | -3.63832 | 35112 ft | 519 kts | 154° |
| 2026-05-07 20:07 | 72.66853 | -3.53687 | 35111 ft | 519 kts | 154° |
| 2026-05-07 20:07 | 72.60284 | -3.43601 | 35112 ft | 519 kts | 155° |
| 2026-05-07 20:08 | 72.53722 | -3.33605 | 35113 ft | 519 kts | 155° |
| 2026-05-07 20:08 | 72.47191 | -3.23738 | 35111 ft | 519 kts | 155° |
| 2026-05-07 20:09 | 72.40522 | -3.13741 | 35111 ft | 519 kts | 155° |
| 2026-05-07 20:10 | 72.30682 | -2.99139 | 35058 ft | 519 kts | 155° |
| 2026-05-07 20:10 | 72.24089 | -2.89451 | 35053 ft | 519 kts | 155° |
| 2026-05-07 20:11 | 72.17496 | -2.79839 | 35052 ft | 519 kts | 155° |
| 2026-05-07 20:11 | 72.10891 | -2.70286 | 35053 ft | 519 kts | 155° |
| 2026-05-07 20:12 | 72.04282 | -2.60802 | 35054 ft | 519 kts | 155° |
| 2026-05-07 20:12 | 71.97670 | -2.51388 | 35053 ft | 519 kts | 155° |
| 2026-05-07 20:13 | 71.91096 | -2.42100 | 35052 ft | 519 kts | 155° |
| 2026-05-07 20:13 | 71.84477 | -2.32820 | 35053 ft | 519 kts | 156° |
| 2026-05-07 20:14 | 71.77854 | -2.23604 | 35054 ft | 519 kts | 156° |
| 2026-05-07 20:14 | 71.71220 | -2.14445 | 35053 ft | 519 kts | 156° |
| 2026-05-07 20:15 | 71.64583 | -2.05352 | 35052 ft | 519 kts | 156° |
| 2026-05-07 20:15 | 71.57992 | -1.96390 | 35053 ft | 519 kts | 156° |
| 2026-05-07 20:16 | 71.51331 | -1.87403 | 35054 ft | 519 kts | 156° |
| 2026-05-07 20:16 | 71.44656 | -1.78463 | 35053 ft | 519 kts | 156° |
| 2026-05-07 20:17 | 71.38000 | -1.69617 | 35052 ft | 519 kts | 156° |
| 2026-05-07 20:17 | 71.31392 | -1.60899 | 35106 ft | 519 kts | 157° |
| 2026-05-07 20:18 | 71.24731 | -1.52177 | 35112 ft | 519 kts | 157° |
| 2026-05-07 20:18 | 71.18069 | -1.43518 | 35113 ft | 519 kts | 157° |
| 2026-05-07 20:19 | 71.11394 | -1.34906 | 35112 ft | 519 kts | 157° |
| 2026-05-07 20:19 | 71.04727 | -1.26369 | 35111 ft | 519 kts | 157° |
| 2026-05-07 20:20 | 70.98049 | -1.17880 | 35112 ft | 519 kts | 157° |
| 2026-05-07 20:20 | 70.91414 | -1.09506 | 35113 ft | 519 kts | 157° |
| 2026-05-07 20:21 | 70.84734 | -1.01137 | 35112 ft | 519 kts | 157° |
| 2026-05-07 20:21 | 70.78053 | -0.92828 | 35111 ft | 519 kts | 158° |
| 2026-05-07 20:22 | 70.71356 | -0.84560 | 35112 ft | 519 kts | 158° |
| 2026-05-07 20:22 | 70.64662 | -0.76353 | 35113 ft | 519 kts | 158° |
| 2026-05-07 20:23 | 70.58006 | -0.68253 | 35112 ft | 519 kts | 158° |
| 2026-05-07 20:23 | 70.51306 | -0.60156 | 35111 ft | 519 kts | 158° |
| 2026-05-07 20:24 | 70.44598 | -0.52107 | 35112 ft | 519 kts | 158° |
| 2026-05-07 20:24 | 70.37891 | -0.44115 | 35113 ft | 519 kts | 158° |
| 2026-05-07 20:25 | 70.31230 | -0.36234 | 35111 ft | 519 kts | 158° |
| 2026-05-07 20:25 | 70.24527 | -0.28211 | 35112 ft | 519 kts | 158° |
| 2026-05-07 20:26 | 70.17804 | -0.20385 | 35113 ft | 519 kts | 159° |
| 2026-05-07 20:26 | 70.11076 | -0.12656 | 35112 ft | 519 kts | 159° |
| 2026-05-07 20:27 | 70.04348 | -0.04962 | 35111 ft | 519 kts | 159° |
| 2026-05-07 20:27 | 69.97661 | 0.02614 | 35111 ft | 519 kts | 160° |
| 2026-05-07 20:28 | 69.90819 | 0.09369 | 35113 ft | 519 kts | 162° |
| 2026-05-07 20:28 | 69.83934 | 0.15736 | 35112 ft | 519 kts | 162° |
| 2026-05-07 20:29 | 69.77060 | 0.22199 | 35111 ft | 519 kts | 162° |
| 2026-05-07 20:29 | 69.70194 | 0.28677 | 35112 ft | 519 kts | 162° |
| 2026-05-07 20:30 | 69.63386 | 0.35194 | 35113 ft | 519 kts | 161° |
| 2026-05-07 20:30 | 69.56539 | 0.41821 | 35112 ft | 519 kts | 161° |
| 2026-05-07 20:31 | 69.49689 | 0.48316 | 35112 ft | 519 kts | 162° |
| 2026-05-07 20:31 | 69.42825 | 0.54748 | 35112 ft | 519 kts | 162° |
| 2026-05-07 20:32 | 69.35955 | 0.61131 | 35112 ft | 519 kts | 162° |
| 2026-05-07 20:32 | 69.29141 | 0.67417 | 35140 ft | 518 kts | 162° |
| 2026-05-07 20:33 | 69.22285 | 0.73697 | 35142 ft | 518 kts | 162° |
| 2026-05-07 20:33 | 69.15433 | 0.79932 | 35141 ft | 518 kts | 162° |
| 2026-05-07 20:34 | 69.08577 | 0.86129 | 35141 ft | 518 kts | 162° |
| 2026-05-07 20:34 | 69.01769 | 0.92243 | 35142 ft | 518 kts | 162° |
| 2026-05-07 20:35 | 68.94858 | 0.98409 | 35142 ft | 518 kts | 162° |
| 2026-05-07 20:35 | 68.87996 | 1.04490 | 35141 ft | 518 kts | 162° |
| 2026-05-07 20:36 | 68.81132 | 1.10535 | 35141 ft | 518 kts | 162° |
| 2026-05-07 20:36 | 68.74260 | 1.16546 | 35142 ft | 518 kts | 163° |
| 2026-05-07 20:37 | 68.67436 | 1.22478 | 35142 ft | 518 kts | 163° |
| 2026-05-07 20:37 | 68.60567 | 1.28410 | 35141 ft | 518 kts | 163° |
| 2026-05-07 20:38 | 68.53688 | 1.34313 | 35141 ft | 518 kts | 163° |
| 2026-05-07 20:38 | 68.46818 | 1.40170 | 35142 ft | 518 kts | 163° |
| 2026-05-07 20:39 | 68.39933 | 1.46004 | 35142 ft | 518 kts | 163° |
| 2026-05-07 20:39 | 68.33105 | 1.51753 | 35141 ft | 518 kts | 163° |
| 2026-05-07 20:40 | 68.26222 | 1.57511 | 35141 ft | 517 kts | 163° |
| 2026-05-07 20:40 | 68.19300 | 1.63265 | 35142 ft | 517 kts | 163° |
| 2026-05-07 20:41 | 68.12432 | 1.68938 | 35142 ft | 517 kts | 163° |
| 2026-05-07 20:41 | 68.05554 | 1.74585 | 35141 ft | 517 kts | 163° |
| 2026-05-07 20:42 | 67.98673 | 1.80198 | 35141 ft | 517 kts | 163° |
| 2026-05-07 20:42 | 67.91840 | 1.85738 | 35142 ft | 517 kts | 164° |
| 2026-05-07 20:43 | 67.84962 | 1.91280 | 35142 ft | 517 kts | 164° |
| 2026-05-07 20:43 | 67.78075 | 1.96795 | 35142 ft | 517 kts | 164° |
| 2026-05-07 20:44 | 67.71193 | 2.02273 | 35141 ft | 517 kts | 164° |
| 2026-05-07 20:44 | 67.64348 | 2.07688 | 35141 ft | 517 kts | 164° |
| 2026-05-07 20:45 | 67.57464 | 2.13100 | 35142 ft | 517 kts | 164° |
| 2026-05-07 20:45 | 67.50570 | 2.18487 | 35142 ft | 517 kts | 164° |
| 2026-05-07 20:46 | 67.43678 | 2.23842 | 35141 ft | 517 kts | 164° |
| 2026-05-07 20:46 | 67.36833 | 2.29126 | 35141 ft | 517 kts | 164° |
| 2026-05-07 20:47 | 67.29933 | 2.34422 | 35142 ft | 517 kts | 164° |
| 2026-05-07 20:47 | 67.23041 | 2.39680 | 35167 ft | 517 kts | 165° |
| 2026-05-07 20:48 | 67.16132 | 2.44918 | 35171 ft | 518 kts | 165° |
| 2026-05-07 20:48 | 67.09220 | 2.50129 | 35171 ft | 517 kts | 165° |
| 2026-05-07 20:49 | 67.02358 | 2.55271 | 35172 ft | 517 kts | 165° |
| 2026-05-07 20:49 | 66.95447 | 2.60420 | 35171 ft | 517 kts | 165° |
| 2026-05-07 20:50 | 66.88534 | 2.65539 | 35170 ft | 517 kts | 165° |
| 2026-05-07 20:50 | 66.81621 | 2.70628 | 35171 ft | 517 kts | 165° |
| 2026-05-07 20:51 | 66.74706 | 2.75689 | 35172 ft | 517 kts | 165° |
| 2026-05-07 20:51 | 66.67836 | 2.80688 | 35171 ft | 517 kts | 165° |
| 2026-05-07 20:52 | 66.60919 | 2.85692 | 35170 ft | 517 kts | 165° |
| 2026-05-07 20:52 | 66.53997 | 2.90670 | 35171 ft | 517 kts | 165° |
| 2026-05-07 20:53 | 66.47074 | 2.95620 | 35172 ft | 517 kts | 165° |
| 2026-05-07 20:53 | 66.40153 | 3.00541 | 35171 ft | 517 kts | 165° |
| 2026-05-07 20:54 | 66.33276 | 3.05402 | 35170 ft | 517 kts | 165° |
| 2026-05-07 20:54 | 66.26354 | 3.10268 | 35171 ft | 517 kts | 166° |
| 2026-05-07 20:55 | 66.19420 | 3.15113 | 35172 ft | 517 kts | 166° |
| 2026-05-07 20:55 | 66.12493 | 3.19926 | 35172 ft | 517 kts | 166° |
| 2026-05-07 20:56 | 66.05606 | 3.24685 | 35171 ft | 517 kts | 166° |
| 2026-05-07 20:56 | 65.98674 | 3.29448 | 35171 ft | 517 kts | 166° |
| 2026-05-07 20:57 | 65.91742 | 3.34184 | 35171 ft | 517 kts | 166° |
| 2026-05-07 20:57 | 65.84807 | 3.38895 | 35172 ft | 517 kts | 166° |
| 2026-05-07 20:58 | 65.77870 | 3.43582 | 35171 ft | 517 kts | 166° |
| 2026-05-07 20:58 | 65.70936 | 3.48240 | 35170 ft | 517 kts | 166° |
| 2026-05-07 20:59 | 65.64044 | 3.52844 | 35171 ft | 517 kts | 166° |
| 2026-05-07 20:59 | 65.57098 | 3.57459 | 35172 ft | 517 kts | 166° |
| 2026-05-07 21:00 | 65.50160 | 3.62043 | 35171 ft | 517 kts | 166° |
| 2026-05-07 21:00 | 65.43221 | 3.66603 | 35171 ft | 517 kts | 167° |
| 2026-05-07 21:01 | 65.36324 | 3.71110 | 35171 ft | 517 kts | 167° |
| 2026-05-07 21:01 | 65.29379 | 3.75624 | 35171 ft | 517 kts | 167° |
| 2026-05-07 21:02 | 65.22431 | 3.80115 | 35172 ft | 517 kts | 167° |
| 2026-05-07 21:02 | 65.15483 | 3.84584 | 35171 ft | 518 kts | 167° |
| 2026-05-07 21:03 | 65.08501 | 3.89047 | 35171 ft | 520 kts | 168° |
| 2026-05-07 21:03 | 65.01560 | 3.93461 | 35171 ft | 520 kts | 168° |
| 2026-05-07 21:04 | 64.94575 | 3.97879 | 35172 ft | 520 kts | 168° |
| 2026-05-07 21:04 | 64.87587 | 4.02275 | 35172 ft | 520 kts | 168° |
| 2026-05-07 21:05 | 64.80605 | 4.06644 | 35171 ft | 520 kts | 168° |
| 2026-05-07 21:05 | 64.73615 | 4.10995 | 35171 ft | 520 kts | 168° |
| 2026-05-07 21:06 | 64.66622 | 4.15324 | 35171 ft | 520 kts | 168° |
| 2026-05-07 21:06 | 64.59680 | 4.19599 | 35172 ft | 520 kts | 168° |
| 2026-05-07 21:07 | 64.52689 | 4.23882 | 35171 ft | 520 kts | 168° |
| 2026-05-07 21:07 | 64.45693 | 4.28145 | 35170 ft | 520 kts | 168° |
| 2026-05-07 21:08 | 64.38703 | 4.32382 | 35171 ft | 520 kts | 168° |
| 2026-05-07 21:08 | 64.31704 | 4.36601 | 35172 ft | 519 kts | 168° |
| 2026-05-07 21:09 | 64.24762 | 4.40765 | 35171 ft | 519 kts | 168° |
| 2026-05-07 21:09 | 64.17768 | 4.44938 | 35171 ft | 519 kts | 168° |
| 2026-05-07 21:10 | 64.10762 | 4.49101 | 35165 ft | 521 kts | 169° |
| 2026-05-07 21:10 | 64.03722 | 4.53255 | 35164 ft | 524 kts | 170° |
| 2026-05-07 21:11 | 63.96707 | 4.57433 | 35171 ft | 524 kts | 170° |
| 2026-05-07 21:11 | 63.93176 | 4.59499 | 35284 ft | 526 kts | 170° |
| 2026-05-07 21:11 | 63.86107 | 4.63597 | 35782 ft | 523 kts | 170° |
| 2026-05-07 21:12 | 63.82582 | 4.65633 | 35969 ft | 523 kts | 170° |
| 2026-05-07 21:12 | 63.79053 | 4.67668 | 36169 ft | 523 kts | 170° |
| 2026-05-07 21:12 | 63.75574 | 4.69671 | 36356 ft | 523 kts | 170° |
| 2026-05-07 21:12 | 63.71999 | 4.71738 | 36541 ft | 523 kts | 169° |
| 2026-05-07 21:13 | 63.68501 | 4.74084 | 36714 ft | 525 kts | 166° |
| 2026-05-07 21:13 | 63.65050 | 4.76784 | 36900 ft | 526 kts | 164° |
| 2026-05-07 21:13 | 63.61618 | 4.79686 | 37075 ft | 526 kts | 163° |
| 2026-05-07 21:13 | 63.58204 | 4.82637 | 37152 ft | 526 kts | 163° |
| 2026-05-07 21:14 | 63.51356 | 4.88376 | 37164 ft | 524 kts | 164° |
| 2026-05-07 21:14 | 63.44506 | 4.93948 | 37163 ft | 523 kts | 164° |
| 2026-05-07 21:15 | 63.37701 | 4.99434 | 37164 ft | 524 kts | 163° |
| 2026-05-07 21:15 | 63.30872 | 5.05037 | 37163 ft | 524 kts | 164° |
| 2026-05-07 21:16 | 63.23969 | 5.10604 | 37164 ft | 524 kts | 164° |
| 2026-05-07 21:16 | 63.17159 | 5.16037 | 37163 ft | 524 kts | 164° |
| 2026-05-07 21:17 | 63.10300 | 5.21472 | 37165 ft | 524 kts | 164° |
| 2026-05-07 21:17 | 63.03435 | 5.26880 | 37163 ft | 523 kts | 164° |
| 2026-05-07 21:18 | 62.97731 | 5.31353 | 37164 ft | 523 kts | 164° |
| 2026-05-07 21:18 | 62.89761 | 5.37571 | 37164 ft | 523 kts | 164° |
| 2026-05-07 21:19 | 62.82899 | 5.42895 | 37165 ft | 523 kts | 165° |
| 2026-05-07 21:19 | 62.76026 | 5.48202 | 37165 ft | 523 kts | 165° |
| 2026-05-07 21:20 | 62.69162 | 5.53475 | 37165 ft | 523 kts | 165° |
| 2026-05-07 21:20 | 62.62340 | 5.58691 | 37165 ft | 523 kts | 165° |
| 2026-05-07 21:21 | 62.56624 | 5.63041 | 37165 ft | 523 kts | 165° |
| 2026-05-07 21:21 | 62.49655 | 5.68322 | 37157 ft | 523 kts | 165° |
| 2026-05-07 21:22 | 62.42782 | 5.73503 | 37155 ft | 523 kts | 165° |
| 2026-05-07 21:22 | 62.35952 | 5.78628 | 37149 ft | 523 kts | 165° |
| 2026-05-07 21:23 | 62.29078 | 5.83761 | 37145 ft | 523 kts | 165° |
| 2026-05-07 21:23 | 62.22204 | 5.88868 | 37140 ft | 523 kts | 165° |
| 2026-05-07 21:24 | 62.15324 | 5.93956 | 37139 ft | 522 kts | 165° |
| 2026-05-07 21:24 | 62.08501 | 5.98977 | 37133 ft | 522 kts | 165° |
| 2026-05-07 21:25 | 62.01611 | 6.04024 | 37131 ft | 525 kts | 166° |
| 2026-05-07 21:25 | 61.94694 | 6.09065 | 37122 ft | 526 kts | 166° |
| 2026-05-07 21:26 | 61.87778 | 6.14082 | 37116 ft | 524 kts | 166° |
| 2026-05-07 21:26 | 61.80892 | 6.19054 | 37112 ft | 523 kts | 166° |
| 2026-05-07 21:27 | 61.74050 | 6.23970 | 37112 ft | 522 kts | 166° |
| 2026-05-07 21:27 | 61.67165 | 6.28894 | 37112 ft | 523 kts | 166° |
| 2026-05-07 21:28 | 61.60274 | 6.33800 | 37112 ft | 523 kts | 166° |
| 2026-05-07 21:28 | 61.53367 | 6.38693 | 37112 ft | 524 kts | 166° |
| 2026-05-07 21:29 | 61.46450 | 6.43571 | 37113 ft | 525 kts | 166° |
| 2026-05-07 21:29 | 61.39533 | 6.48425 | 37111 ft | 525 kts | 167° |
| 2026-05-07 21:30 | 61.32653 | 6.53231 | 37113 ft | 525 kts | 167° |
| 2026-05-07 21:30 | 61.25728 | 6.58047 | 37111 ft | 526 kts | 167° |
| 2026-05-07 21:31 | 61.18780 | 6.62856 | 37113 ft | 526 kts | 167° |
| 2026-05-07 21:31 | 61.11834 | 6.67641 | 37112 ft | 526 kts | 167° |
| 2026-05-07 21:32 | 61.04884 | 6.72407 | 37112 ft | 526 kts | 167° |
| 2026-05-07 21:32 | 60.97983 | 6.77117 | 37112 ft | 526 kts | 167° |
| 2026-05-07 21:33 | 60.91033 | 6.81839 | 37112 ft | 525 kts | 167° |
| 2026-05-07 21:33 | 60.84098 | 6.86529 | 37112 ft | 525 kts | 167° |
| 2026-05-07 21:34 | 60.77162 | 6.91199 | 37111 ft | 524 kts | 167° |
| 2026-05-07 21:34 | 60.70285 | 6.95808 | 37113 ft | 524 kts | 167° |
| 2026-05-07 21:35 | 60.63351 | 7.00434 | 37111 ft | 524 kts | 167° |
| 2026-05-07 21:35 | 60.56417 | 7.05039 | 37113 ft | 524 kts | 167° |
| 2026-05-07 21:36 | 60.49479 | 7.09626 | 37111 ft | 525 kts | 167° |
| 2026-05-07 21:36 | 60.42582 | 7.14166 | 37113 ft | 525 kts | 167° |
| 2026-05-07 21:37 | 60.35627 | 7.18723 | 37111 ft | 525 kts | 167° |
| 2026-05-07 21:37 | 60.28667 | 7.23263 | 37112 ft | 526 kts | 167° |
| 2026-05-07 21:38 | 60.21703 | 7.27785 | 37112 ft | 526 kts | 167° |
| 2026-05-07 21:38 | 60.14737 | 7.32289 | 37112 ft | 526 kts | 167° |
| 2026-05-07 21:39 | 60.07809 | 7.36748 | 37112 ft | 526 kts | 167° |
| 2026-05-07 21:39 | 60.00837 | 7.41215 | 37117 ft | 525 kts | 167° |
| 2026-05-07 21:40 | 59.93883 | 7.45652 | 37100 ft | 523 kts | 167° |
| 2026-05-07 21:40 | 59.86967 | 7.50044 | 37099 ft | 521 kts | 167° |
| 2026-05-07 21:41 | 59.80109 | 7.54381 | 37109 ft | 520 kts | 167° |
| 2026-05-07 21:41 | 59.73213 | 7.58724 | 37111 ft | 520 kts | 167° |
| 2026-05-07 21:42 | 59.66310 | 7.63052 | 37114 ft | 520 kts | 167° |
| 2026-05-07 21:42 | 59.59404 | 7.67362 | 37116 ft | 520 kts | 167° |
| 2026-05-07 21:43 | 59.52510 | 7.71647 | 37119 ft | 520 kts | 167° |
| 2026-05-07 21:43 | 59.45658 | 7.75888 | 37120 ft | 519 kts | 167° |
| 2026-05-07 21:44 | 59.38766 | 7.80136 | 37123 ft | 519 kts | 167° |
| 2026-05-07 21:44 | 59.31865 | 7.84370 | 37129 ft | 519 kts | 167° |
| 2026-05-07 21:45 | 59.24990 | 7.88571 | 37151 ft | 517 kts | 167° |
| 2026-05-07 21:45 | 59.18170 | 7.92721 | 37152 ft | 517 kts | 167° |
| 2026-05-07 21:46 | 59.11295 | 7.96887 | 37157 ft | 517 kts | 167° |
| 2026-05-07 21:46 | 59.04421 | 8.01034 | 37158 ft | 517 kts | 167° |
| 2026-05-07 21:47 | 58.97550 | 8.05163 | 37163 ft | 517 kts | 167° |
| 2026-05-07 21:47 | 58.90682 | 8.09273 | 37159 ft | 517 kts | 167° |
| 2026-05-07 21:48 | 58.83861 | 8.13337 | 37161 ft | 516 kts | 167° |
| 2026-05-07 21:48 | 58.77010 | 8.17403 | 37167 ft | 515 kts | 167° |
| 2026-05-07 21:49 | 58.70151 | 8.21456 | 37171 ft | 515 kts | 167° |
| 2026-05-07 21:49 | 58.63294 | 8.25492 | 37180 ft | 515 kts | 167° |
| 2026-05-07 21:50 | 58.56440 | 8.29509 | 37184 ft | 515 kts | 167° |
| 2026-05-07 21:50 | 58.50127 | 8.33195 | 37188 ft | 515 kts | 167° |
| 2026-05-07 21:51 | 58.43270 | 8.37183 | 37191 ft | 515 kts | 167° |
| 2026-05-07 21:51 | 58.36417 | 8.41152 | 37194 ft | 515 kts | 167° |
| 2026-05-07 21:52 | 58.29564 | 8.45105 | 37194 ft | 515 kts | 167° |
| 2026-05-07 21:52 | 58.22712 | 8.49042 | 37196 ft | 515 kts | 167° |
| 2026-05-07 21:53 | 58.15859 | 8.52964 | 37195 ft | 514 kts | 167° |
| 2026-05-07 21:53 | 58.09004 | 8.56870 | 37195 ft | 514 kts | 167° |
| 2026-05-07 21:54 | 58.02198 | 8.60734 | 37196 ft | 514 kts | 167° |
| 2026-05-07 21:54 | 57.95353 | 8.64633 | 37198 ft | 513 kts | 167° |
| 2026-05-07 21:55 | 57.88517 | 8.68496 | 37193 ft | 513 kts | 167° |
| 2026-05-07 21:55 | 57.81677 | 8.72317 | 37189 ft | 514 kts | 167° |
| 2026-05-07 21:56 | 57.74869 | 8.76107 | 37185 ft | 514 kts | 167° |
| 2026-05-07 21:56 | 57.68025 | 8.79903 | 37183 ft | 513 kts | 167° |
| 2026-05-07 21:57 | 57.61090 | 8.82934 | 37180 ft | 511 kts | 173° |
| 2026-05-07 21:57 | 57.54107 | 8.85204 | 37173 ft | 508 kts | 174° |
| 2026-05-07 21:58 | 57.47196 | 8.87488 | 37171 ft | 507 kts | 173° |
| 2026-05-07 21:58 | 57.40254 | 8.89884 | 37171 ft | 507 kts | 173° |
| 2026-05-07 21:59 | 57.33308 | 8.92307 | 37170 ft | 508 kts | 173° |
| 2026-05-07 21:59 | 57.26369 | 8.94778 | 37172 ft | 508 kts | 173° |
| 2026-05-07 22:00 | 57.19430 | 8.97223 | 37170 ft | 508 kts | 173° |
| 2026-05-07 22:00 | 57.12540 | 8.99633 | 37172 ft | 508 kts | 173° |
| 2026-05-07 22:01 | 57.05602 | 9.02047 | 37171 ft | 508 kts | 173° |
| 2026-05-07 22:01 | 56.98661 | 9.04453 | 37171 ft | 507 kts | 173° |
| 2026-05-07 22:02 | 56.91717 | 9.06850 | 37171 ft | 507 kts | 173° |
| 2026-05-07 22:02 | 56.84825 | 9.09219 | 37171 ft | 507 kts | 173° |
| 2026-05-07 22:03 | 56.77894 | 9.11594 | 37180 ft | 507 kts | 173° |
| 2026-05-07 22:03 | 56.70947 | 9.13965 | 37177 ft | 508 kts | 173° |
| 2026-05-07 22:04 | 56.63997 | 9.16327 | 37171 ft | 508 kts | 173° |
| 2026-05-07 22:04 | 56.57061 | 9.18677 | 37171 ft | 508 kts | 173° |
| 2026-05-07 22:05 | 56.50163 | 9.21004 | 37171 ft | 508 kts | 173° |
| 2026-05-07 22:05 | 56.43217 | 9.23340 | 37171 ft | 507 kts | 172° |
| 2026-05-07 22:06 | 56.36280 | 9.25663 | 37171 ft | 507 kts | 172° |
| 2026-05-07 22:06 | 56.29349 | 9.27976 | 37170 ft | 506 kts | 172° |
| 2026-05-07 22:07 | 56.22422 | 9.30279 | 37179 ft | 506 kts | 172° |
| 2026-05-07 22:07 | 56.15487 | 9.32577 | 37181 ft | 507 kts | 172° |
| 2026-05-07 22:08 | 56.08602 | 9.34849 | 37183 ft | 507 kts | 172° |
| 2026-05-07 22:08 | 56.01664 | 9.37131 | 37182 ft | 507 kts | 172° |
| 2026-05-07 22:09 | 55.94731 | 9.39403 | 37187 ft | 507 kts | 172° |
| 2026-05-07 22:09 | 55.87797 | 9.41667 | 37187 ft | 507 kts | 172° |
| 2026-05-07 22:10 | 55.80899 | 9.43910 | 37187 ft | 507 kts | 172° |
| 2026-05-07 22:10 | 55.73965 | 9.46158 | 37190 ft | 507 kts | 172° |
| 2026-05-07 22:11 | 55.67023 | 9.48400 | 37200 ft | 508 kts | 172° |
| 2026-05-07 22:11 | 55.60068 | 9.50638 | 37201 ft | 508 kts | 172° |
| 2026-05-07 22:12 | 55.53068 | 9.52883 | 37200 ft | 508 kts | 172° |
| 2026-05-07 22:12 | 55.46161 | 9.55089 | 37201 ft | 507 kts | 172° |
| 2026-05-07 22:13 | 55.39214 | 9.57301 | 37200 ft | 507 kts | 172° |
| 2026-05-07 22:13 | 55.32275 | 9.59502 | 37200 ft | 507 kts | 172° |
| 2026-05-07 22:14 | 55.25350 | 9.61691 | 37201 ft | 505 kts | 172° |
| 2026-05-07 22:14 | 55.18424 | 9.63873 | 37200 ft | 505 kts | 172° |
| 2026-05-07 22:15 | 55.11513 | 9.66056 | 37201 ft | 504 kts | 172° |
| 2026-05-07 22:15 | 55.04666 | 9.68205 | 37200 ft | 503 kts | 172° |
| 2026-05-07 22:16 | 54.97784 | 9.70343 | 37201 ft | 502 kts | 172° |
| 2026-05-07 22:16 | 54.90904 | 9.72473 | 37200 ft | 502 kts | 172° |
| 2026-05-07 22:17 | 54.84023 | 9.74467 | 37202 ft | 500 kts | 176° |
| 2026-05-07 22:17 | 54.77127 | 9.74652 | 37200 ft | 499 kts | 185° |
| 2026-05-07 22:18 | 54.66766 | 9.73070 | 37200 ft | 498 kts | 188° |
| 2026-05-07 22:19 | 54.59865 | 9.71921 | 37191 ft | 498 kts | 187° |
| 2026-05-07 22:19 | 54.53019 | 9.70889 | 37187 ft | 497 kts | 187° |
| 2026-05-07 22:20 | 54.46127 | 9.69881 | 37188 ft | 497 kts | 187° |
| 2026-05-07 22:20 | 54.39235 | 9.68877 | 37185 ft | 497 kts | 187° |
| 2026-05-07 22:21 | 54.32350 | 9.67888 | 37181 ft | 496 kts | 187° |
| 2026-05-07 22:21 | 54.25470 | 9.66907 | 37177 ft | 497 kts | 187° |
| 2026-05-07 22:22 | 54.18625 | 9.65936 | 37177 ft | 497 kts | 187° |
| 2026-05-07 22:22 | 54.11734 | 9.64962 | 37174 ft | 497 kts | 187° |
| 2026-05-07 22:23 | 54.04829 | 9.63990 | 37174 ft | 497 kts | 187° |
| 2026-05-07 22:23 | 53.97931 | 9.63022 | 37171 ft | 497 kts | 186° |
| 2026-05-07 22:24 | 53.91040 | 9.62058 | 37171 ft | 497 kts | 186° |
| 2026-05-07 22:24 | 53.84148 | 9.61097 | 37172 ft | 497 kts | 186° |
| 2026-05-07 22:25 | 53.77251 | 9.60139 | 37170 ft | 497 kts | 186° |
| 2026-05-07 22:25 | 53.70365 | 9.59185 | 37172 ft | 497 kts | 186° |
| 2026-05-07 22:26 | 53.63516 | 9.58240 | 37170 ft | 497 kts | 186° |
| 2026-05-07 22:26 | 53.56625 | 9.57291 | 37172 ft | 497 kts | 186° |
| 2026-05-07 22:27 | 53.49737 | 9.56347 | 37171 ft | 496 kts | 186° |
| 2026-05-07 22:27 | 53.42854 | 9.55406 | 37171 ft | 496 kts | 186° |
| 2026-05-07 22:28 | 53.35970 | 9.54468 | 37171 ft | 496 kts | 186° |
| 2026-05-07 22:28 | 53.29137 | 9.53540 | 37171 ft | 496 kts | 186° |
| 2026-05-07 22:29 | 53.22245 | 9.52607 | 37170 ft | 497 kts | 186° |
| 2026-05-07 22:29 | 53.15357 | 9.51677 | 37161 ft | 497 kts | 186° |
| 2026-05-07 22:30 | 53.08471 | 9.50751 | 37153 ft | 496 kts | 186° |
| 2026-05-07 22:30 | 53.01636 | 9.49835 | 37149 ft | 496 kts | 186° |
| 2026-05-07 22:31 | 52.94763 | 9.48916 | 37150 ft | 496 kts | 186° |
| 2026-05-07 22:31 | 52.87887 | 9.48000 | 37143 ft | 496 kts | 186° |
| 2026-05-07 22:32 | 52.81010 | 9.47087 | 37142 ft | 496 kts | 186° |
| 2026-05-07 22:32 | 52.74135 | 9.46177 | 37141 ft | 496 kts | 186° |
| 2026-05-07 22:33 | 52.67292 | 9.45274 | 37142 ft | 496 kts | 186° |
| 2026-05-07 22:33 | 52.60405 | 9.44368 | 37141 ft | 497 kts | 186° |
| 2026-05-07 22:34 | 52.53512 | 9.43464 | 37141 ft | 497 kts | 186° |
| 2026-05-07 22:34 | 52.46619 | 9.42563 | 37142 ft | 497 kts | 186° |
| 2026-05-07 22:35 | 52.39718 | 9.41664 | 37141 ft | 498 kts | 186° |
| 2026-05-07 22:35 | 52.32840 | 9.40770 | 37142 ft | 499 kts | 186° |
| 2026-05-07 22:36 | 52.25914 | 9.39873 | 37142 ft | 499 kts | 186° |
| 2026-05-07 22:36 | 52.18996 | 9.38980 | 37141 ft | 499 kts | 186° |
| 2026-05-07 22:37 | 52.12070 | 9.38089 | 37142 ft | 499 kts | 186° |
| 2026-05-07 22:37 | 52.05194 | 9.37207 | 37141 ft | 499 kts | 186° |
| 2026-05-07 22:38 | 51.98271 | 9.36321 | 37142 ft | 499 kts | 186° |
| 2026-05-07 22:38 | 51.91348 | 9.35439 | 37142 ft | 499 kts | 186° |
| 2026-05-07 22:39 | 51.84480 | 9.34566 | 37134 ft | 498 kts | 186° |
| 2026-05-07 22:39 | 51.77565 | 9.33689 | 37133 ft | 498 kts | 186° |
| 2026-05-07 22:40 | 51.70656 | 9.32817 | 37133 ft | 498 kts | 186° |
| 2026-05-07 22:40 | 51.63746 | 9.31946 | 37135 ft | 498 kts | 186° |
| 2026-05-07 22:41 | 51.56839 | 9.31079 | 37137 ft | 498 kts | 186° |
| 2026-05-07 22:41 | 51.49978 | 9.30220 | 37138 ft | 498 kts | 186° |
| 2026-05-07 22:42 | 51.43075 | 9.29359 | 37140 ft | 498 kts | 186° |
| 2026-05-07 22:42 | 51.36172 | 9.28500 | 37140 ft | 498 kts | 186° |
| 2026-05-07 22:43 | 51.29261 | 9.27642 | 37141 ft | 499 kts | 185° |
| 2026-05-07 22:43 | 51.22342 | 9.26787 | 37142 ft | 499 kts | 185° |
| 2026-05-07 22:44 | 51.15462 | 9.25938 | 37141 ft | 499 kts | 185° |
| 2026-05-07 22:44 | 51.08536 | 9.25087 | 37141 ft | 499 kts | 185° |
| 2026-05-07 22:45 | 51.01615 | 9.24234 | 37142 ft | 499 kts | 186° |
| 2026-05-07 22:45 | 50.94693 | 9.23385 | 37142 ft | 499 kts | 185° |
| 2026-05-07 22:46 | 50.87764 | 9.22543 | 37139 ft | 499 kts | 185° |
| 2026-05-07 22:46 | 50.80841 | 9.21705 | 37138 ft | 499 kts | 185° |
| 2026-05-07 22:47 | 50.73962 | 9.20874 | 37131 ft | 499 kts | 186° |
| 2026-05-07 22:47 | 50.67051 | 9.19859 | 37125 ft | 498 kts | 188° |
| 2026-05-07 22:48 | 50.60184 | 9.18325 | 37115 ft | 498 kts | 189° |
| 2026-05-07 22:48 | 50.53324 | 9.16815 | 37112 ft | 498 kts | 189° |
| 2026-05-07 22:49 | 50.46505 | 9.15385 | 37113 ft | 498 kts | 189° |
| 2026-05-07 22:49 | 50.39635 | 9.13964 | 37112 ft | 498 kts | 189° |
| 2026-05-07 22:50 | 50.32761 | 9.12536 | 37111 ft | 498 kts | 189° |
| 2026-05-07 22:50 | 50.25899 | 9.11118 | 37112 ft | 498 kts | 189° |
| 2026-05-07 22:51 | 50.19068 | 9.09717 | 37113 ft | 498 kts | 189° |
| 2026-05-07 22:51 | 50.12199 | 9.08314 | 37112 ft | 498 kts | 189° |
| 2026-05-07 22:52 | 50.05332 | 9.06915 | 37112 ft | 498 kts | 189° |
| 2026-05-07 22:52 | 49.98463 | 9.05520 | 37112 ft | 498 kts | 189° |
| 2026-05-07 22:53 | 49.91597 | 9.04118 | 37112 ft | 498 kts | 189° |
| 2026-05-07 22:53 | 49.84773 | 9.02742 | 37113 ft | 498 kts | 188° |
| 2026-05-07 22:54 | 49.77904 | 9.01363 | 37112 ft | 498 kts | 188° |
| 2026-05-07 22:54 | 49.71034 | 8.99987 | 37112 ft | 498 kts | 189° |
| 2026-05-07 22:55 | 49.64169 | 8.98606 | 37111 ft | 498 kts | 189° |
| 2026-05-07 22:55 | 49.57394 | 8.96786 | 37112 ft | 497 kts | 192° |
| 2026-05-07 22:56 | 49.50666 | 8.94814 | 37112 ft | 495 kts | 192° |
| 2026-05-07 22:56 | 49.43916 | 8.92928 | 37111 ft | 492 kts | 191° |
| 2026-05-07 22:57 | 49.37186 | 8.91091 | 37112 ft | 492 kts | 191° |
| 2026-05-07 22:57 | 49.30446 | 8.89260 | 37112 ft | 493 kts | 191° |
| 2026-05-07 22:58 | 49.23778 | 8.87451 | 37083 ft | 487 kts | 191° |
| 2026-05-07 22:58 | 49.17165 | 8.85649 | 36947 ft | 476 kts | 192° |
| 2026-05-07 22:58 | 49.13921 | 8.84757 | 36717 ft | 475 kts | 192° |
| 2026-05-07 22:59 | 49.10659 | 8.83867 | 36350 ft | 476 kts | 192° |
| 2026-05-07 22:59 | 49.07400 | 8.82982 | 35993 ft | 477 kts | 191° |
| 2026-05-07 22:59 | 49.04133 | 8.82097 | 35611 ft | 477 kts | 192° |
| 2026-05-07 22:59 | 49.00859 | 8.81211 | 35210 ft | 478 kts | 191° |
| 2026-05-07 23:00 | 48.97584 | 8.80326 | 34777 ft | 479 kts | 192° |
| 2026-05-07 23:00 | 48.94335 | 8.79448 | 34331 ft | 480 kts | 192° |
| 2026-05-07 23:00 | 48.91036 | 8.78558 | 33817 ft | 483 kts | 192° |
| 2026-05-07 23:00 | 48.87717 | 8.77662 | 33266 ft | 486 kts | 192° |
| 2026-05-07 23:01 | 48.84381 | 8.76769 | 32702 ft | 489 kts | 192° |
| 2026-05-07 23:01 | 48.81022 | 8.75872 | 32110 ft | 492 kts | 191° |
| 2026-05-07 23:01 | 48.77643 | 8.74971 | 31512 ft | 495 kts | 191° |
| 2026-05-07 23:01 | 48.74244 | 8.74065 | 30914 ft | 497 kts | 191° |
| 2026-05-07 23:02 | 48.70840 | 8.73159 | 30435 ft | 496 kts | 191° |
| 2026-05-07 23:02 | 48.67455 | 8.72246 | 30117 ft | 492 kts | 191° |
| 2026-05-07 23:02 | 48.64099 | 8.71343 | 29760 ft | 489 kts | 191° |
| 2026-05-07 23:02 | 48.60800 | 8.70464 | 29372 ft | 487 kts | 191° |
| 2026-05-07 23:03 | 48.57461 | 8.69579 | 28928 ft | 486 kts | 191° |
| 2026-05-07 23:03 | 48.54131 | 8.68699 | 28549 ft | 484 kts | 191° |
| 2026-05-07 23:03 | 48.50822 | 8.67825 | 28103 ft | 484 kts | 190° |
| 2026-05-07 23:03 | 48.47507 | 8.66951 | 27711 ft | 482 kts | 190° |
| 2026-05-07 23:04 | 48.44221 | 8.66086 | 27233 ft | 476 kts | 191° |
| 2026-05-07 23:04 | 48.40969 | 8.65229 | 26680 ft | 473 kts | 191° |
| 2026-05-07 23:04 | 48.37739 | 8.64379 | 26122 ft | 469 kts | 191° |
| 2026-05-07 23:04 | 48.34594 | 8.63489 | 25583 ft | 464 kts | 192° |
| 2026-05-07 23:05 | 48.31445 | 8.62501 | 25028 ft | 460 kts | 193° |
| 2026-05-07 23:05 | 48.28328 | 8.61529 | 24487 ft | 456 kts | 192° |
| 2026-05-07 23:05 | 48.25238 | 8.60597 | 23938 ft | 452 kts | 192° |
| 2026-05-07 23:05 | 48.22171 | 8.59678 | 23397 ft | 447 kts | 192° |
| 2026-05-07 23:06 | 48.19126 | 8.58767 | 22847 ft | 444 kts | 192° |
| 2026-05-07 23:06 | 48.16114 | 8.57865 | 22303 ft | 440 kts | 193° |
| 2026-05-07 23:06 | 48.13122 | 8.56969 | 21761 ft | 436 kts | 193° |
| 2026-05-07 23:06 | 48.10159 | 8.56088 | 21217 ft | 432 kts | 193° |
| 2026-05-07 23:07 | 48.07219 | 8.55217 | 20675 ft | 429 kts | 193° |
| 2026-05-07 23:07 | 48.04301 | 8.54354 | 20128 ft | 426 kts | 193° |
| 2026-05-07 23:07 | 48.01407 | 8.53499 | 19588 ft | 422 kts | 193° |
| 2026-05-07 23:07 | 47.98574 | 8.52662 | 19056 ft | 419 kts | 193° |
| 2026-05-07 23:08 | 47.95726 | 8.51822 | 18521 ft | 416 kts | 193° |
| 2026-05-07 23:08 | 47.92898 | 8.51013 | 17979 ft | 413 kts | 192° |
| 2026-05-07 23:08 | 47.90062 | 8.50406 | 17462 ft | 410 kts | 189° |
| 2026-05-07 23:08 | 47.87243 | 8.49908 | 16920 ft | 407 kts | 188° |
| 2026-05-07 23:09 | 47.84438 | 8.49492 | 16392 ft | 403 kts | 187° |
| 2026-05-07 23:09 | 47.81654 | 8.49186 | 15857 ft | 399 kts | 184° |
| 2026-05-07 23:09 | 47.78913 | 8.49631 | 15351 ft | 397 kts | 167° |
| 2026-05-07 23:09 | 47.76408 | 8.51321 | 14849 ft | 397 kts | 149° |
| 2026-05-07 23:10 | 47.74291 | 8.53936 | 14364 ft | 394 kts | 139° |
| 2026-05-07 23:10 | 47.72940 | 8.55727 | 14033 ft | 393 kts | 143° |
| 2026-05-07 23:10 | 47.70627 | 8.57824 | 13540 ft | 388 kts | 159° |
| 2026-05-07 23:10 | 47.67226 | 8.59105 | 12927 ft | 377 kts | 171° |
| 2026-05-07 23:11 | 47.64706 | 8.60028 | 12864 ft | 369 kts | 164° |
| 2026-05-07 23:11 | 47.62362 | 8.61645 | 12831 ft | 380 kts | 148° |
| 2026-05-07 23:11 | 47.60432 | 8.64348 | 12830 ft | 384 kts | 129° |
| 2026-05-07 23:11 | 47.59199 | 8.67846 | 12826 ft | 386 kts | 109° |
| 2026-05-07 23:12 | 47.58834 | 8.70429 | 12826 ft | 387 kts | 97° |
| 2026-05-07 23:12 | 47.59012 | 8.74392 | 12828 ft | 389 kts | 77° |
| 2026-05-07 23:12 | 47.60034 | 8.78074 | 12814 ft | 383 kts | 60° |
| 2026-05-07 23:12 | 47.61472 | 8.81252 | 12674 ft | 361 kts | 56° |
| 2026-05-07 23:13 | 47.62792 | 8.85468 | 12405 ft | 327 kts | 78° |
| 2026-05-07 23:13 | 47.62803 | 8.88720 | 11958 ft | 308 kts | 102° |
| 2026-05-07 23:13 | 47.62326 | 8.90686 | 11670 ft | 295 kts | 119° |
| 2026-05-07 23:13 | 47.61160 | 8.93084 | 11234 ft | 281 kts | 131° |
| 2026-05-07 23:14 | 47.59995 | 8.95299 | 10762 ft | 273 kts | 127° |
| 2026-05-07 23:14 | 47.58898 | 8.97539 | 10223 ft | 266 kts | 131° |
| 2026-05-07 23:14 | 47.57681 | 8.99595 | 9660 ft | 262 kts | 132° |
| 2026-05-07 23:14 | 47.56584 | 9.01711 | 9366 ft | 256 kts | 127° |
| 2026-05-07 23:15 | 47.55650 | 9.03913 | 9123 ft | 251 kts | 122° |
| 2026-05-07 23:15 | 47.54811 | 9.06211 | 8759 ft | 255 kts | 120° |
| 2026-05-07 23:15 | 47.53987 | 9.08524 | 8384 ft | 253 kts | 120° |
| 2026-05-07 23:15 | 47.53160 | 9.10848 | 8016 ft | 257 kts | 120° |
| 2026-05-07 23:16 | 47.52220 | 9.13095 | 7645 ft | 256 kts | 132° |
| 2026-05-07 23:16 | 47.50845 | 9.14616 | 7286 ft | 250 kts | 160° |
| 2026-05-07 23:16 | 47.49166 | 9.14943 | 6947 ft | 242 kts | 190° |
| 2026-05-07 23:16 | 47.47651 | 9.14023 | 6575 ft | 235 kts | 217° |
| 2026-05-07 23:17 | 47.46427 | 9.12423 | 6173 ft | 235 kts | 224° |
| 2026-05-07 23:17 | 47.45155 | 9.10866 | 5760 ft | 239 kts | 220° |
| 2026-05-07 23:17 | 47.43825 | 9.09389 | 5390 ft | 238 kts | 224° |
| 2026-05-07 23:17 | 47.42765 | 9.07544 | 5121 ft | 232 kts | 239° |
| 2026-05-07 23:18 | 47.42159 | 9.05425 | 5048 ft | 218 kts | 258° |
| 2026-05-07 23:18 | 47.42105 | 9.03283 | 5012 ft | 209 kts | 274° |
| 2026-05-07 23:18 | 47.42319 | 9.01184 | 5002 ft | 202 kts | 279° |
| 2026-05-07 23:18 | 47.42551 | 8.99215 | 5043 ft | 187 kts | 279° |
| 2026-05-07 23:19 | 47.42735 | 8.97373 | 5001 ft | 178 kts | 278° |
| 2026-05-07 23:19 | 47.42892 | 8.95585 | 4990 ft | 173 kts | 277° |
| 2026-05-07 23:19 | 47.43033 | 8.93839 | 4990 ft | 170 kts | 277° |
| 2026-05-07 23:19 | 47.43167 | 8.92084 | 5004 ft | 174 kts | 277° |
| 2026-05-07 23:20 | 47.43300 | 8.90293 | 5005 ft | 177 kts | 277° |
| 2026-05-07 23:20 | 47.43430 | 8.88499 | 5006 ft | 174 kts | 277° |
| 2026-05-07 23:20 | 47.43554 | 8.86777 | 5051 ft | 164 kts | 277° |
| 2026-05-07 23:20 | 47.43671 | 8.85130 | 5008 ft | 157 kts | 277° |
| 2026-05-07 23:21 | 47.43782 | 8.83568 | 4990 ft | 153 kts | 277° |
| 2026-05-07 23:21 | 47.43893 | 8.82014 | 4990 ft | 150 kts | 277° |
| 2026-05-07 23:21 | 47.44000 | 8.80497 | 4840 ft | 149 kts | 277° |
| 2026-05-07 23:21 | 47.44109 | 8.78970 | 4615 ft | 149 kts | 277° |
| 2026-05-07 23:22 | 47.44216 | 8.77449 | 4396 ft | 149 kts | 277° |
| 2026-05-07 23:22 | 47.44325 | 8.75920 | 4153 ft | 149 kts | 277° |
| 2026-05-07 23:22 | 47.44432 | 8.74400 | 3932 ft | 149 kts | 277° |
| 2026-05-07 23:22 | 47.44526 | 8.72877 | 3708 ft | 149 kts | 276° |
| 2026-05-07 23:23 | 47.44631 | 8.71362 | 3487 ft | 148 kts | 277° |
| 2026-05-07 23:23 | 47.44742 | 8.69872 | 3269 ft | 148 kts | 277° |
| 2026-05-07 23:23 | 47.44840 | 8.68364 | 3032 ft | 147 kts | 277° |
| 2026-05-07 23:23 | 47.44943 | 8.66867 | 2813 ft | 146 kts | 277° |
| 2026-05-07 23:24 | 47.45060 | 8.65381 | 2584 ft | 145 kts | 277° |
| 2026-05-07 23:24 | 47.45173 | 8.63914 | 2397 ft | 141 kts | 278° |
| 2026-05-07 23:24 | 47.45270 | 8.62477 | 2162 ft | 142 kts | 277° |
| 2026-05-07 23:24 | 47.45373 | 8.61015 | 1949 ft | 143 kts | 277° |
| 2026-05-07 23:25 | 47.45477 | 8.59570 | 1802 ft | 140 kts | 278° |
| 2026-05-07 23:25 | 47.45582 | 8.58157 | 1595 ft | 137 kts | 277° |
| 2026-05-07 23:25 | 47.45678 | 8.56772 | 1451 ft | 133 kts | 277° |
| 2026-05-07 23:25 | 47.45757 | 8.55532 | 1430 ft | 103 kts | 278° |
| 2026-05-07 23:26 | 47.45826 | 8.54709 | 1430 ft | 58 kts | 276° |
| 2026-05-07 23:26 | 47.45841 | 8.54510 | 1430 ft | 15 kts | 278° |
| 2026-05-07 23:26 | 47.45886 | 8.54296 | 1430 ft | 24 kts | 316° |
| 2026-05-07 23:26 | 47.45931 | 8.54269 | 1430 ft | 2 kts | 25° |
| 2026-05-07 23:27 | 47.45951 | 8.54452 | 1430 ft | 15 kts | 95° |
| 2026-05-07 23:27 | 47.45941 | 8.54604 | 1430 ft | 14 kts | 96° |
| 2026-05-07 23:27 | 47.45931 | 8.54744 | 1430 ft | 13 kts | 96° |
| 2026-05-07 23:28 | 47.45921 | 8.54876 | 1430 ft | 13 kts | 96° |
| 2026-05-07 23:28 | 47.45914 | 8.55001 | 1430 ft | 12 kts | 95° |
| 2026-05-07 23:28 | 47.45927 | 8.55112 | 1430 ft | 11 kts | 44° |
| 2026-05-07 23:28 | 47.45976 | 8.55195 | 1430 ft | 10 kts | 67° |
| 2026-05-07 23:29 | 47.45980 | 8.55298 | 1430 ft | 10 kts | 97° |
| 2026-05-07 23:29 | 47.45974 | 8.55396 | 1430 ft | 9 kts | 94° |
| 2026-05-07 23:29 | 47.45969 | 8.55490 | 1430 ft | 9 kts | 95° |
| 2026-05-07 23:29 | 47.45962 | 8.55577 | 1430 ft | 8 kts | 97° |
| 2026-05-07 23:30 | 47.45961 | 8.55587 | 1430 ft | 0 kts | 92° |
| 2026-05-07 23:30 | 47.45961 | 8.55588 | 1430 ft | 0 kts | 92° |
| 2026-05-07 23:31 | 47.45965 | 8.55602 | 1430 ft | 2 kts | 54° |
| 2026-05-07 23:31 | 47.45974 | 8.55611 | 1430 ft | 2 kts | 32° |
| 2026-05-07 23:31 | 47.45990 | 8.55622 | 1430 ft | 2 kts | 19° |
| 2026-05-07 23:31 | 47.46012 | 8.55632 | 1430 ft | 4 kts | 13° |
| 2026-05-07 23:32 | 47.46027 | 8.55635 | 1430 ft | 0 kts | 6° |
| 2026-05-07 23:32 | 47.46035 | 8.55636 | 1430 ft | 2 kts | 6° |
| 2026-05-07 23:32 | 47.46039 | 8.55637 | 1430 ft | 0 kts | 6° |